Observation data for Persimmon Gap on 01/17/2021      Previous  Date  Next       Current Mesonet Observations  Soil Data  Daily Summary Page  Observations in Plain Language
KPG1 170600Z 00010KT 12/M05 A3006 RMK A01 T01211054  RH  029%=      5-min Rain = 0
KPG1 170601Z 01008KT 12/M05 A3006 RMK A01 T01211054  RH  029%=      5-min Rain = 0
KPG1 170602Z 01008KT 12/M05 A3007 RMK A01 T01211054  RH  029%=      5-min Rain = 0
KPG1 170603Z 36008KT 12/M05 A3007 RMK A01 T01201054  RH  029%=      5-min Rain = 0
KPG1 170604Z 35007KT 12/M05 A3007 RMK A01 T01211054  RH  029%=      5-min Rain = 0
KPG1 170605Z 35008KT 12/M05 A3007 RMK A01 T01211054  RH  029%=      5-min Rain = 0
KPG1 170606Z 34008KT 12/M05 A3007 RMK A01 T01211054  RH  029%=      5-min Rain = 0
KPG1 170607Z 34008KT 12/M05 A3007 RMK A01 T01221054  RH  029%=      5-min Rain = 0
KPG1 170608Z 34007KT 12/M05 A3007 RMK A01 T01231054  RH  029%=      5-min Rain = 0
KPG1 170609Z 33007KT 12/M06 A3007 RMK A01 T01231055  RH  028%=      5-min Rain = 0
KPG1 170610Z 34006KT 12/M06 A3007 RMK A01 T01241055  RH  028%=      5-min Rain = 0
KPG1 170611Z 34004KT 12/M06 A3007 RMK A01 T01241055  RH  028%=      5-min Rain = 0
KPG1 170612Z 01003KT 12/M06 A3007 RMK A01 T01231055  RH  028%=      5-min Rain = 0
KPG1 170613Z 05004KT 12/M05 A3007 RMK A01 T01201054  RH  029%=      5-min Rain = 0
KPG1 170614Z 06005KT 12/M05 A3007 RMK A01 T01151054  RH  030%=      5-min Rain = 0
KPG1 170615Z 06005KT 11/M05 A3007 RMK A01 T01121054  RH  031%=      5-min Rain = 0
KPG1 170616Z 05006KT 11/M05 A3007 RMK A01 T01101053  RH  031%=      5-min Rain = 0
KPG1 170617Z 05005KT 11/M05 A3007 RMK A01 T01081053  RH  032%=      5-min Rain = 0
KPG1 170618Z 05004KT 11/M05 A3007 RMK A01 T01081053  RH  032%=      5-min Rain = 0
KPG1 170619Z 03004KT 11/M05 A3007 RMK A01 T01081053  RH  032%=      5-min Rain = 0
KPG1 170620Z 04003KT 11/M05 A3007 RMK A01 T01091053  RH  032%=      5-min Rain = 0
KPG1 170621Z 35002KT 11/M05 A3007 RMK A01 T01091052  RH  032%=      5-min Rain = 0
KPG1 170622Z 01002KT 11/M05 A3007 RMK A01 T01071053  RH  032%=      5-min Rain = 0
KPG1 170623Z 02002KT 11/M05 A3007 RMK A01 T01081053  RH  032%=      5-min Rain = 0
KPG1 170624Z 04002KT 11/M05 A3007 RMK A01 T01101052  RH  032%=      5-min Rain = 0
KPG1 170625Z 04002KT 11/M05 A3008 RMK A01 T01091053  RH  032%=      5-min Rain = 0
KPG1 170626Z 03001KT 11/M05 A3008 RMK A01 T01091053  RH  032%=      5-min Rain = 0
KPG1 170627Z 03001KT 11/M05 A3008 RMK A01 T01091053  RH  032%=      5-min Rain = 0
KPG1 170628Z 34002KT 11/M05 A3008 RMK A01 T01091053  RH  032%=      5-min Rain = 0
KPG1 170629Z 02002KT 11/M05 A3008 RMK A01 T01081053  RH  032%=      5-min Rain = 0
KPG1 170630Z 00002KT 11/M05 A3008 RMK A01 T01091053  RH  032%=      5-min Rain = 0
KPG1 170631Z 32004KT 11/M05 A3008 RMK A01 T01091054  RH  031%=      5-min Rain = 0
KPG1 170632Z 34002KT 11/M05 A3008 RMK A01 T01101054  RH  031%=      5-min Rain = 0
KPG1 170633Z 01002KT 11/M05 A3008 RMK A01 T01111054  RH  031%=      5-min Rain = 0
KPG1 170634Z 02003KT 11/M05 A3008 RMK A01 T01111054  RH  031%=      5-min Rain = 0
KPG1 170635Z 03003KT 11/M05 A3008 RMK A01 T01101053  RH  031%=      5-min Rain = 0
KPG1 170636Z 01004KT 11/M05 A3008 RMK A01 T01061054  RH  032%=      5-min Rain = 0
KPG1 170637Z 02002KT 10/M05 A3008 RMK A01 T01041054  RH  032%=      5-min Rain = 0
KPG1 170638Z 05001KT 10/M05 A3008 RMK A01 T01021054  RH  033%=      5-min Rain = 0
KPG1 170639Z 04002KT 10/M05 A3008 RMK A01 T01011053  RH  033%=      5-min Rain = 0
KPG1 170640Z 03002KT 10/M05 A3008 RMK A01 T00991053  RH  034%=      5-min Rain = 0
KPG1 170641Z 04000KT 10/M05 A3008 RMK A01 T00981053  RH  034%=      5-min Rain = 0
KPG1 170642Z 06000KT 10/M05 A3008 RMK A01 T00961054  RH  034%=      5-min Rain = 0
KPG1 170643Z 06000KT 10/M05 A3008 RMK A01 T00981054  RH  034%=      5-min Rain = 0
KPG1 170644Z 28000KT 10/M05 A3008 RMK A01 T00991054  RH  034%=      5-min Rain = 0
KPG1 170645Z 33001KT 10/M05 A3008 RMK A01 T01011054  RH  033%=      5-min Rain = 0
KPG1 170646Z 32001KT 10/M05 A3008 RMK A01 T01021054  RH  033%=      5-min Rain = 0
KPG1 170647Z 32002KT 10/M05 A3008 RMK A01 T01041054  RH  032%=      5-min Rain = 0
KPG1 170648Z 32001KT 11/M05 A3008 RMK A01 T01051054  RH  032%=      5-min Rain = 0
KPG1 170649Z 33002KT 11/M05 A3008 RMK A01 T01071054  RH  032%=      5-min Rain = 0
KPG1 170650Z 35002KT 11/M05 A3008 RMK A01 T01071054  RH  032%=      5-min Rain = 0
KPG1 170651Z 35002KT 10/M05 A3008 RMK A01 T01041054  RH  032%=      5-min Rain = 0
KPG1 170652Z 00002KT 10/M06 A3008 RMK A01 T01031055  RH  033%=      5-min Rain = 0
KPG1 170653Z 04002KT 10/M05 A3007 RMK A01 T01021054  RH  033%=      5-min Rain = 0
KPG1 170654Z 05001KT 10/M05 A3007 RMK A01 T00981054  RH  034%=      5-min Rain = 0
KPG1 170655Z 07001KT 10/M06 A3007 RMK A01 T00951055  RH  034%=      5-min Rain = 0
KPG1 170656Z 07001KT 10/M05 A3007 RMK A01 T00971054  RH  034%=      5-min Rain = 0
KPG1 170657Z 07002KT 10/M05 A3007 RMK A01 T01001054  RH  033%=      5-min Rain = 0
KPG1 170658Z 05002KT 10/M05 A3007 RMK A01 T01021054  RH  033%=      5-min Rain = 0
KPG1 170659Z 00003KT 10/M05 A3007 RMK A01 T01041054  RH  033%=      5-min Rain = 0
KPG1 170700Z 01004KT 11/M05 A3008 RMK A01 T01051054  RH  032%=      5-min Rain = 0
KPG1 170701Z 00004KT 11/M05 A3008 RMK A01 T01081054  RH  032%=      5-min Rain = 0
KPG1 170702Z 00003KT 11/M05 A3008 RMK A01 T01111054  RH  031%=      5-min Rain = 0
KPG1 170703Z 02003KT 11/M05 A3008 RMK A01 T01111054  RH  031%=      5-min Rain = 0
KPG1 170704Z 03003KT 11/M06 A3008 RMK A01 T01101055  RH  031%=      5-min Rain = 0
KPG1 170705Z 04003KT 11/M06 A3008 RMK A01 T01051055  RH  032%=      5-min Rain = 0
KPG1 170706Z 04003KT 10/M06 A3008 RMK A01 T00961056  RH  034%=      5-min Rain = 0
KPG1 170707Z 04003KT 09/M06 A3008 RMK A01 T00921056  RH  035%=      5-min Rain = 0
KPG1 170708Z 04003KT 09/M05 A3008 RMK A01 T00931054  RH  035%=      5-min Rain = 0
KPG1 170709Z 03003KT 10/M05 A3008 RMK A01 T00951054  RH  035%=      5-min Rain = 0
KPG1 170710Z 02003KT 10/M05 A3008 RMK A01 T00971053  RH  034%=      5-min Rain = 0
KPG1 170711Z 01002KT 10/M05 A3008 RMK A01 T00961053  RH  034%=      5-min Rain = 0
KPG1 170712Z 35002KT 10/M05 A3008 RMK A01 T00951054  RH  035%=      5-min Rain = 0
KPG1 170713Z 31004KT 10/M06 A3008 RMK A01 T00951055  RH  034%=      5-min Rain = 0
KPG1 170714Z 32005KT 10/M05 A3008 RMK A01 T01011054  RH  033%=      5-min Rain = 0
KPG1 170715Z 35003KT 10/M05 A3008 RMK A01 T01041054  RH  033%=      5-min Rain = 0
KPG1 170716Z 35002KT 10/M05 A3008 RMK A01 T01031053  RH  033%=      5-min Rain = 0
KPG1 170717Z 32003KT 10/M05 A3008 RMK A01 T00991054  RH  034%=      5-min Rain = 0
KPG1 170718Z 32005KT 10/M06 A3008 RMK A01 T00981056  RH  033%=      5-min Rain = 0
KPG1 170719Z 33004KT 10/M06 A3008 RMK A01 T01041056  RH  032%=      5-min Rain = 0
KPG1 170720Z 33004KT 11/M05 A3008 RMK A01 T01081054  RH  032%=      5-min Rain = 0
KPG1 170721Z 34004KT 10/M06 A3008 RMK A01 T01041056  RH  032%=      5-min Rain = 0
KPG1 170722Z 34006KT 10/M06 A3008 RMK A01 T01031057  RH  032%=      5-min Rain = 0
KPG1 170723Z 33004KT 11/M06 A3008 RMK A01 T01071057  RH  031%=      5-min Rain = 0
KPG1 170724Z 33005KT 11/M06 A3008 RMK A01 T01111058  RH  030%=      5-min Rain = 0
KPG1 170725Z 35006KT 11/M06 A3008 RMK A01 T01141059  RH  029%=      5-min Rain = 0
KPG1 170726Z 34007KT 12/M06 A3008 RMK A01 T01191059  RH  028%=      5-min Rain = 0
KPG1 170727Z 34006KT 12/M06 A3008 RMK A01 T01201059  RH  028%=      5-min Rain = 0
KPG1 170728Z 34006KT 12/M06 A3008 RMK A01 T01181061  RH  028%=      5-min Rain = 0
KPG1 170729Z 34005KT 12/M06 A3008 RMK A01 T01201061  RH  028%=      5-min Rain = 0
KPG1 170730Z 34005KT 12/M06 A3008 RMK A01 T01221061  RH  027%=      5-min Rain = 0
KPG1 170731Z 34004KT 12/M06 A3008 RMK A01 T01231062  RH  027%=      5-min Rain = 0
KPG1 170732Z 33003KT 12/M06 A3008 RMK A01 T01241061  RH  027%=      5-min Rain = 0
KPG1 170733Z 01003KT 12/M06 A3008 RMK A01 T01171061  RH  028%=      5-min Rain = 0
KPG1 170734Z 04005KT 11/M06 A3008 RMK A01 T01091062  RH  029%=      5-min Rain = 0
KPG1 170735Z 05005KT 10/M06 A3008 RMK A01 T01041061  RH  031%=      5-min Rain = 0
KPG1 170736Z 04005KT 10/M06 A3008 RMK A01 T00991060  RH  032%=      5-min Rain = 0
KPG1 170737Z 05005KT 10/M06 A3008 RMK A01 T00971059  RH  033%=      5-min Rain = 0
KPG1 170738Z 05005KT 09/M06 A3008 RMK A01 T00941058  RH  034%=      5-min Rain = 0
KPG1 170739Z 05005KT 09/M06 A3008 RMK A01 T00921058  RH  034%=      5-min Rain = 0
KPG1 170740Z 05005KT 09/M06 A3008 RMK A01 T00921057  RH  034%=      5-min Rain = 0
KPG1 170741Z 04006KT 09/M06 A3008 RMK A01 T00901057  RH  035%=      5-min Rain = 0
KPG1 170742Z 04006KT 09/M06 A3008 RMK A01 T00881057  RH  035%=      5-min Rain = 0
KPG1 170743Z 02006KT 09/M06 A3008 RMK A01 T00891057  RH  035%=      5-min Rain = 0
KPG1 170744Z 01006KT 10/M06 A3008 RMK A01 T00961056  RH  034%=      5-min Rain = 0
KPG1 170745Z 00006KT 10/M06 A3008 RMK A01 T01031057  RH  032%=      5-min Rain = 0
KPG1 170746Z 00005KT 11/M06 A3008 RMK A01 T01061057  RH  031%=      5-min Rain = 0
KPG1 170747Z 00005KT 11/M06 A3008 RMK A01 T01051058  RH  031%=      5-min Rain = 0
KPG1 170748Z 35005KT 10/M06 A3009 RMK A01 T01041059  RH  031%=      5-min Rain = 0
KPG1 170749Z 35005KT 10/M06 A3009 RMK A01 T01021059  RH  032%=      5-min Rain = 0
KPG1 170750Z 34006KT 10/M06 A3009 RMK A01 T01001059  RH  032%=      5-min Rain = 0
KPG1 170751Z 34006KT 10/M06 A3009 RMK A01 T01001059  RH  032%=      5-min Rain = 0
KPG1 170752Z 34007KT 10/M06 A3009 RMK A01 T01021058  RH  032%=      5-min Rain = 0
KPG1 170753Z 34007KT 10/M06 A3009 RMK A01 T01041059  RH  031%=      5-min Rain = 0
KPG1 170754Z 35007KT 11/M06 A3009 RMK A01 T01071059  RH  031%=      5-min Rain = 0
KPG1 170755Z 35006KT 11/M06 A3009 RMK A01 T01081058  RH  031%=      5-min Rain = 0
KPG1 170756Z 36006KT 11/M06 A3009 RMK A01 T01081059  RH  030%=      5-min Rain = 0
KPG1 170757Z 36006KT 11/M06 A3009 RMK A01 T01061059  RH  031%=      5-min Rain = 0
KPG1 170758Z 01006KT 10/M06 A3009 RMK A01 T01021060  RH  032%=      5-min Rain = 0
KPG1 170759Z 03005KT 10/M06 A3009 RMK A01 T00981060  RH  032%=      5-min Rain = 0
KPG1 170800Z 04006KT 09/M06 A3009 RMK A01 T00931060  RH  033%=      5-min Rain = 0
KPG1 170801Z 03006KT 09/M06 A3009 RMK A01 T00901059  RH  034%=      5-min Rain = 0
KPG1 170802Z 02006KT 09/M06 A301 RMK A01 T00891058  RH  035%=      5-min Rain = 0
KPG1 170803Z 02006KT 09/M06 A301 RMK A01 T00891058  RH  035%=      5-min Rain = 0
KPG1 170804Z 02004KT 09/M06 A301 RMK A01 T00901058  RH  035%=      5-min Rain = 0
KPG1 170805Z 01003KT 09/M06 A3009 RMK A01 T00921058  RH  034%=      5-min Rain = 0
KPG1 170806Z 03003KT 10/M06 A3009 RMK A01 T00951058  RH  034%=      5-min Rain = 0
KPG1 170807Z 04004KT 10/M06 A3009 RMK A01 T00961057  RH  033%=      5-min Rain = 0
KPG1 170808Z 01005KT 10/M06 A3009 RMK A01 T00951058  RH  033%=      5-min Rain = 0
KPG1 170809Z 34007KT 10/M06 A3009 RMK A01 T00951060  RH  033%=      5-min Rain = 0
KPG1 170810Z 34007G12KT 10/M06 A3009 RMK A01 T00981060  RH  032%=      5-min Rain = 0
KPG1 170811Z 34011KT 10/M06 A3009 RMK A01 T01031063  RH  031%=      5-min Rain = 0
KPG1 170812Z 32013KT 11/M06 A3009 RMK A01 T01101064  RH  029%=      5-min Rain = 0
KPG1 170813Z 35009KT 11/M07 A3009 RMK A01 T01141065  RH  028%=      5-min Rain = 0
KPG1 170814Z 34010KT 11/M07 A3009 RMK A01 T01141065  RH  028%=      5-min Rain = 0
KPG1 170815Z 34009KT 11/M07 A3009 RMK A01 T01141066  RH  028%=      5-min Rain = 0
KPG1 170816Z 34011G16KT 12/M07 A3009 RMK A01 T01151067  RH  027%=      5-min Rain = 0
KPG1 170817Z 34013KT 12/M07 A3009 RMK A01 T01161068  RH  027%=      5-min Rain = 0
KPG1 170818Z 34015KT 12/M07 A3009 RMK A01 T01171068  RH  027%=      5-min Rain = 0
KPG1 170819Z 34014KT 12/M07 A3009 RMK A01 T01171068  RH  027%=      5-min Rain = 0
KPG1 170820Z 34014KT 12/M07 A3009 RMK A01 T01171068  RH  027%=      5-min Rain = 0
KPG1 170821Z 35013KT 12/M07 A3009 RMK A01 T01161068  RH  027%=      5-min Rain = 0
KPG1 170822Z 35013KT 12/M07 A3009 RMK A01 T01161069  RH  027%=      5-min Rain = 0
KPG1 170823Z 35013KT 12/M07 A3009 RMK A01 T01151069  RH  027%=      5-min Rain = 0
KPG1 170824Z 35012KT 11/M07 A3009 RMK A01 T01141069  RH  027%=      5-min Rain = 0
KPG1 170825Z 35013KT 11/M07 A3009 RMK A01 T01141070  RH  027%=      5-min Rain = 0
KPG1 170826Z 35011KT 11/M07 A3009 RMK A01 T01141071  RH  027%=      5-min Rain = 0
KPG1 170827Z 35011KT 11/M07 A3009 RMK A01 T01131071  RH  027%=      5-min Rain = 0
KPG1 170828Z 35011KT 11/M07 A3009 RMK A01 T01131072  RH  027%=      5-min Rain = 0
KPG1 170829Z 35010KT 11/M07 A3009 RMK A01 T01131072  RH  027%=      5-min Rain = 0
KPG1 170830Z 35010KT 11/M07 A3009 RMK A01 T01131073  RH  027%=      5-min Rain = 0
KPG1 170831Z 35010KT 11/M07 A3009 RMK A01 T01121073  RH  027%=      5-min Rain = 0
KPG1 170832Z 35011KT 11/M07 A3009 RMK A01 T01111074  RH  027%=      5-min Rain = 0
KPG1 170833Z 36010KT 11/M08 A3009 RMK A01 T01121075  RH  026%=      5-min Rain = 0
KPG1 170834Z 35010KT 11/M08 A3009 RMK A01 T01121075  RH  026%=      5-min Rain = 0
KPG1 170835Z 35011KT 11/M08 A3009 RMK A01 T01121076  RH  026%=      5-min Rain = 0
KPG1 170836Z 36010KT 11/M08 A3009 RMK A01 T01141076  RH  026%=      5-min Rain = 0
KPG1 170837Z 35008KT 11/M08 A3009 RMK A01 T01131076  RH  026%=      5-min Rain = 0
KPG1 170838Z 35010KT 11/M08 A3009 RMK A01 T01131077  RH  026%=      5-min Rain = 0
KPG1 170839Z 34010KT 11/M08 A3009 RMK A01 T01121077  RH  026%=      5-min Rain = 0
KPG1 170840Z 35008KT 11/M08 A3009 RMK A01 T01131078  RH  025%=      5-min Rain = 0
KPG1 170841Z 34008KT 11/M08 A3009 RMK A01 T01131078  RH  026%=      5-min Rain = 0
KPG1 170842Z 35007KT 11/M08 A3009 RMK A01 T01121078  RH  025%=      5-min Rain = 0
KPG1 170843Z 34008KT 11/M08 A3009 RMK A01 T01121078  RH  026%=      5-min Rain = 0
KPG1 170844Z 35008KT 11/M08 A3009 RMK A01 T01121078  RH  026%=      5-min Rain = 0
KPG1 170845Z 36009KT 11/M08 A301 RMK A01 T01121079  RH  025%=      5-min Rain = 0
KPG1 170846Z 35008KT 11/M08 A301 RMK A01 T01131079  RH  025%=      5-min Rain = 0
KPG1 170847Z 35008KT 11/M08 A301 RMK A01 T01131079  RH  025%=      5-min Rain = 0
KPG1 170848Z 34008KT 11/M08 A301 RMK A01 T01121079  RH  025%=      5-min Rain = 0
KPG1 170849Z 34010KT 11/M08 A3009 RMK A01 T01121080  RH  025%=      5-min Rain = 0
KPG1 170850Z 34009KT 11/M08 A3009 RMK A01 T01121081  RH  025%=      5-min Rain = 0
KPG1 170851Z 33007KT 11/M08 A3009 RMK A01 T01131080  RH  025%=      5-min Rain = 0
KPG1 170852Z 34008KT 11/M08 A3009 RMK A01 T01141080  RH  025%=      5-min Rain = 0
KPG1 170853Z 34008KT 11/M08 A3009 RMK A01 T01141081  RH  025%=      5-min Rain = 0
KPG1 170854Z 33007KT 11/M08 A3009 RMK A01 T01131081  RH  025%=      5-min Rain = 0
KPG1 170855Z 33009KT 11/M08 A3009 RMK A01 T01131081  RH  025%=      5-min Rain = 0
KPG1 170856Z 33008KT 11/M08 A3009 RMK A01 T01131081  RH  025%=      5-min Rain = 0
KPG1 170857Z 33010KT 11/M08 A301 RMK A01 T01121081  RH  025%=      5-min Rain = 0
KPG1 170858Z 33009KT 11/M08 A301 RMK A01 T01121081  RH  025%=      5-min Rain = 0
KPG1 170859Z 34009KT 11/M08 A301 RMK A01 T01131082  RH  025%=      5-min Rain = 0
KPG1 170900Z 33008KT 11/M08 A301 RMK A01 T01131082  RH  025%=      5-min Rain = 0
KPG1 170901Z 33008KT 11/M08 A301 RMK A01 T01131082  RH  025%=      5-min Rain = 0
KPG1 170902Z 33009KT 11/M08 A301 RMK A01 T01131082  RH  025%=      5-min Rain = 0
KPG1 170903Z 32008KT 11/M08 A301 RMK A01 T01141082  RH  025%=      5-min Rain = 0
KPG1 170904Z 33006KT 11/M08 A301 RMK A01 T01141082  RH  024%=      5-min Rain = 0
KPG1 170905Z 33006KT 11/M08 A301 RMK A01 T01131082  RH  025%=      5-min Rain = 0
KPG1 170906Z 32007KT 11/M08 A301 RMK A01 T01121082  RH  025%=      5-min Rain = 0
KPG1 170907Z 33008KT 11/M08 A301 RMK A01 T01121083  RH  025%=      5-min Rain = 0
KPG1 170908Z 34009KT 11/M08 A301 RMK A01 T01121083  RH  025%=      5-min Rain = 0
KPG1 170909Z 34009KT 11/M08 A301 RMK A01 T01121083  RH  025%=      5-min Rain = 0
KPG1 170910Z 34007KT 11/M08 A301 RMK A01 T01121083  RH  025%=      5-min Rain = 0
KPG1 170911Z 35007KT 11/M08 A301 RMK A01 T01121082  RH  025%=      5-min Rain = 0
KPG1 170912Z 35008KT 11/M08 A301 RMK A01 T01111082  RH  025%=      5-min Rain = 0
KPG1 170913Z 35007KT 11/M08 A301 RMK A01 T01111082  RH  025%=      5-min Rain = 0
KPG1 170914Z 36007KT 11/M08 A301 RMK A01 T01101082  RH  025%=      5-min Rain = 0
KPG1 170915Z 00007KT 11/M08 A301 RMK A01 T01081081  RH  026%=      5-min Rain = 0
KPG1 170916Z 00006KT 11/M08 A301 RMK A01 T01061081  RH  026%=      5-min Rain = 0
KPG1 170917Z 01005KT 11/M08 A301 RMK A01 T01051081  RH  026%=      5-min Rain = 0
KPG1 170918Z 02004KT 10/M08 A301 RMK A01 T01031080  RH  027%=      5-min Rain = 0
KPG1 170919Z 03004KT 10/M08 A301 RMK A01 T01011080  RH  027%=      5-min Rain = 0
KPG1 170920Z 03004KT 10/M08 A301 RMK A01 T00991080  RH  028%=      5-min Rain = 0
KPG1 170921Z 03004KT 10/M08 A301 RMK A01 T00991079  RH  028%=      5-min Rain = 0
KPG1 170922Z 04004KT 10/M08 A301 RMK A01 T00991079  RH  028%=      5-min Rain = 0
KPG1 170923Z 04004KT 10/M08 A301 RMK A01 T00991078  RH  028%=      5-min Rain = 0
KPG1 170924Z 05004KT 10/M08 A301 RMK A01 T00971079  RH  028%=      5-min Rain = 0
KPG1 170925Z 05004KT 09/M08 A301 RMK A01 T00941078  RH  029%=      5-min Rain = 0
KPG1 170926Z 05005KT 09/M08 A301 RMK A01 T00901079  RH  029%=      5-min Rain = 0
KPG1 170927Z 05005KT 09/M08 A301 RMK A01 T00881078  RH  030%=      5-min Rain = 0
KPG1 170928Z 05005KT 09/M08 A301 RMK A01 T00861077  RH  031%=      5-min Rain = 0
KPG1 170929Z 04004KT 08/M08 A301 RMK A01 T00841077  RH  031%=      5-min Rain = 0
KPG1 170930Z 03004KT 08/M08 A301 RMK A01 T00821077  RH  031%=      5-min Rain = 0
KPG1 170931Z 00004KT 08/M08 A301 RMK A01 T00841076  RH  031%=      5-min Rain = 0
KPG1 170932Z 00004KT 09/M08 A301 RMK A01 T00851076  RH  031%=      5-min Rain = 0
KPG1 170933Z 35005KT 09/M08 A301 RMK A01 T00861076  RH  031%=      5-min Rain = 0
KPG1 170934Z 31005KT 09/M08 A301 RMK A01 T00881076  RH  031%=      5-min Rain = 0
KPG1 170935Z 32007KT 09/M08 A301 RMK A01 T00921076  RH  030%=      5-min Rain = 0
KPG1 170936Z 32007KT 10/M08 A301 RMK A01 T00981078  RH  028%=      5-min Rain = 0
KPG1 170937Z 31008KT 10/M08 A301 RMK A01 T01031078  RH  027%=      5-min Rain = 0
KPG1 170938Z 32006KT 11/M08 A301 RMK A01 T01061080  RH  026%=      5-min Rain = 0
KPG1 170939Z 32006KT 11/M08 A301 RMK A01 T01081080  RH  026%=      5-min Rain = 0
KPG1 170940Z 32009KT 11/M08 A301 RMK A01 T01091082  RH  025%=      5-min Rain = 0
KPG1 170941Z 34007KT 11/M08 A301 RMK A01 T01111082  RH  025%=      5-min Rain = 0
KPG1 170942Z 33007KT 11/M08 A301 RMK A01 T01091081  RH  025%=      5-min Rain = 0
KPG1 170943Z 34006KT 11/M08 A301 RMK A01 T01081083  RH  025%=      5-min Rain = 0
KPG1 170944Z 00005KT 11/M08 A301 RMK A01 T01061081  RH  026%=      5-min Rain = 0
KPG1 170945Z 00004KT 10/M08 A301 RMK A01 T01011081  RH  027%=      5-min Rain = 0
KPG1 170946Z 34005KT 10/M08 A301 RMK A01 T00991081  RH  027%=      5-min Rain = 0
KPG1 170947Z 34005KT 10/M08 A301 RMK A01 T00991082  RH  027%=      5-min Rain = 0
KPG1 170948Z 32005KT 10/M08 A301 RMK A01 T01001082  RH  027%=      5-min Rain = 0
KPG1 170949Z 33007KT 10/M08 A301 RMK A01 T01021083  RH  026%=      5-min Rain = 0
KPG1 170950Z 33006KT 10/M08 A301 RMK A01 T01041084  RH  026%=      5-min Rain = 0
KPG1 170951Z 32007KT 11/M08 A301 RMK A01 T01071084  RH  025%=      5-min Rain = 0
KPG1 170952Z 32006KT 11/M08 A301 RMK A01 T01091084  RH  025%=      5-min Rain = 0
KPG1 170953Z 33004KT 11/M08 A301 RMK A01 T01101084  RH  025%=      5-min Rain = 0
KPG1 170954Z 33006KT 11/M08 A301 RMK A01 T01101084  RH  025%=      5-min Rain = 0
KPG1 170955Z 34005KT 11/M09 A301 RMK A01 T01101085  RH  025%=      5-min Rain = 0
KPG1 170956Z 33004KT 11/M09 A3011 RMK A01 T01101085  RH  025%=      5-min Rain = 0
KPG1 170957Z 34002KT 11/M09 A3011 RMK A01 T01091086  RH  025%=      5-min Rain = 0
KPG1 170958Z 36003KT 11/M09 A3011 RMK A01 T01091085  RH  025%=      5-min Rain = 0
KPG1 170959Z 35001KT 11/M09 A3011 RMK A01 T01081086  RH  025%=      5-min Rain = 0
KPG1 171000Z 36004KT 11/M09 A3011 RMK A01 T01081086  RH  025%=      5-min Rain = 0
KPG1 171001Z 34004KT 11/M09 A3011 RMK A01 T01061085  RH  025%=      5-min Rain = 0
KPG1 171002Z 35003KT 11/M09 A3011 RMK A01 T01051085  RH  025%=      5-min Rain = 0
KPG1 171003Z 05003KT 10/M08 A3011 RMK A01 T01011082  RH  027%=      5-min Rain = 0
KPG1 171004Z 04003KT 10/M08 A3011 RMK A01 T00961081  RH  028%=      5-min Rain = 0
KPG1 171005Z 04002KT 09/M08 A3011 RMK A01 T00921081  RH  029%=      5-min Rain = 0
KPG1 171006Z 05003KT 09/M08 A3011 RMK A01 T00901082  RH  029%=      5-min Rain = 0
KPG1 171007Z 03004KT 09/M08 A3011 RMK A01 T00901082  RH  029%=      5-min Rain = 0
KPG1 171008Z 03003KT 09/M08 A3011 RMK A01 T00901083  RH  029%=      5-min Rain = 0
KPG1 171009Z 05002KT 09/M08 A3011 RMK A01 T00911083  RH  028%=      5-min Rain = 0
KPG1 171010Z 04003KT 09/M08 A3011 RMK A01 T00931083  RH  028%=      5-min Rain = 0
KPG1 171011Z 06003KT 09/M08 A301 RMK A01 T00941084  RH  028%=      5-min Rain = 0
KPG1 171012Z 03003KT 10/M08 A3011 RMK A01 T00961083  RH  027%=      5-min Rain = 0
KPG1 171013Z 00002KT 09/M08 A3011 RMK A01 T00941082  RH  028%=      5-min Rain = 0
KPG1 171014Z 33001KT 09/M08 A3011 RMK A01 T00931084  RH  028%=      5-min Rain = 0
KPG1 171015Z 31002KT 09/M09 A301 RMK A01 T00931086  RH  027%=      5-min Rain = 0
KPG1 171016Z 32004KT 10/M09 A301 RMK A01 T00951086  RH  027%=      5-min Rain = 0
KPG1 171017Z 35003KT 10/M09 A301 RMK A01 T00961088  RH  026%=      5-min Rain = 0
KPG1 171018Z 02002KT 10/M09 A301 RMK A01 T00991087  RH  026%=      5-min Rain = 0
KPG1 171019Z 00004KT 10/M09 A301 RMK A01 T00991087  RH  026%=      5-min Rain = 0
KPG1 171020Z 32006KT 10/M09 A3011 RMK A01 T00991089  RH  026%=      5-min Rain = 0
KPG1 171021Z 31004KT 10/M09 A3011 RMK A01 T01031090  RH  025%=      5-min Rain = 0
KPG1 171022Z 32006KT 11/M09 A3011 RMK A01 T01061091  RH  024%=      5-min Rain = 0
KPG1 171023Z 32007KT 11/M09 A3011 RMK A01 T01081091  RH  024%=      5-min Rain = 0
KPG1 171024Z 32006KT 11/M09 A3011 RMK A01 T01101091  RH  023%=      5-min Rain = 0
KPG1 171025Z 31008KT 11/M09 A3011 RMK A01 T01101091  RH  023%=      5-min Rain = 0
KPG1 171026Z 32007G12KT 11/M09 A301 RMK A01 T01111091  RH  023%=      5-min Rain = 0
KPG1 171027Z 31011KT 11/M09 A301 RMK A01 T01111092  RH  023%=      5-min Rain = 0
KPG1 171028Z 33009KT 11/M09 A301 RMK A01 T01121092  RH  023%=      5-min Rain = 0
KPG1 171029Z 32010KT 11/M09 A301 RMK A01 T01131092  RH  023%=      5-min Rain = 0
KPG1 171030Z 33008G13KT 11/M09 A301 RMK A01 T01131093  RH  023%=      5-min Rain = 0
KPG1 171031Z 33008KT 11/M09 A301 RMK A01 T01141093  RH  023%=      5-min Rain = 0
KPG1 171032Z 33009KT 11/M09 A301 RMK A01 T01141092  RH  023%=      5-min Rain = 0
KPG1 171033Z 33009KT 11/M09 A301 RMK A01 T01131093  RH  023%=      5-min Rain = 0
KPG1 171034Z 32011KT 11/M09 A301 RMK A01 T01121093  RH  023%=      5-min Rain = 0
KPG1 171035Z 33011KT 11/M09 A301 RMK A01 T01121093  RH  023%=      5-min Rain = 0
KPG1 171036Z 33009KT 11/M09 A301 RMK A01 T01131093  RH  023%=      5-min Rain = 0
KPG1 171037Z 33010KT 11/M09 A301 RMK A01 T01131093  RH  023%=      5-min Rain = 0
KPG1 171038Z 34009G14KT 11/M09 A301 RMK A01 T01121094  RH  023%=      5-min Rain = 0
KPG1 171039Z 33008KT 11/M09 A301 RMK A01 T01131094  RH  023%=      5-min Rain = 0
KPG1 171040Z 33007KT 11/M09 A301 RMK A01 T01131094  RH  023%=      5-min Rain = 0
KPG1 171041Z 33008KT 11/M09 A301 RMK A01 T01111094  RH  023%=      5-min Rain = 0
KPG1 171042Z 33009KT 11/M09 A301 RMK A01 T01111093  RH  023%=      5-min Rain = 0
KPG1 171043Z 34011KT 11/M09 A301 RMK A01 T01111093  RH  023%=      5-min Rain = 0
KPG1 171044Z 34011G16KT 11/M09 A301 RMK A01 T01111093  RH  023%=      5-min Rain = 0
KPG1 171045Z 33008KT 11/M09 A301 RMK A01 T01111093  RH  023%=      5-min Rain = 0
KPG1 171046Z 34008KT 11/M09 A301 RMK A01 T01111093  RH  023%=      5-min Rain = 0
KPG1 171047Z 34011KT 11/M09 A301 RMK A01 T01091093  RH  023%=      5-min Rain = 0
KPG1 171048Z 33010KT 11/M09 A301 RMK A01 T01091093  RH  023%=      5-min Rain = 0
KPG1 171049Z 35009KT 11/M09 A301 RMK A01 T01091093  RH  023%=      5-min Rain = 0
KPG1 171050Z 34011KT 11/M09 A3009 RMK A01 T01091092  RH  023%=      5-min Rain = 0
KPG1 171051Z 34009KT 11/M09 A3009 RMK A01 T01081093  RH  023%=      5-min Rain = 0
KPG1 171052Z 34010KT 11/M09 A301 RMK A01 T01081093  RH  023%=      5-min Rain = 0
KPG1 171053Z 34012KT 11/M09 A301 RMK A01 T01081093  RH  023%=      5-min Rain = 0
KPG1 171054Z 34009KT 11/M09 A301 RMK A01 T01091093  RH  023%=      5-min Rain = 0
KPG1 171055Z 33010KT 11/M09 A301 RMK A01 T01081093  RH  023%=      5-min Rain = 0
KPG1 171056Z 34012KT 11/M09 A301 RMK A01 T01081093  RH  023%=      5-min Rain = 0
KPG1 171057Z 34010KT 11/M09 A301 RMK A01 T01081093  RH  023%=      5-min Rain = 0
KPG1 171058Z 34009KT 11/M09 A301 RMK A01 T01071093  RH  023%=      5-min Rain = 0
KPG1 171059Z 34009KT 11/M09 A301 RMK A01 T01071093  RH  024%=      5-min Rain = 0
KPG1 171100Z 34010KT 11/M09 A301 RMK A01 T01061093  RH  024%=      5-min Rain = 0
KPG1 171101Z 34011KT 11/M09 A301 RMK A01 T01061092  RH  024%=      5-min Rain = 0
KPG1 171102Z 34012KT 11/M09 A301 RMK A01 T01051093  RH  024%=      5-min Rain = 0
KPG1 171103Z 34011KT 11/M09 A301 RMK A01 T01061092  RH  024%=      5-min Rain = 0
KPG1 171104Z 34013KT 11/M09 A301 RMK A01 T01061092  RH  024%=      5-min Rain = 0
KPG1 171105Z 35011KT 11/M09 A301 RMK A01 T01071092  RH  024%=      5-min Rain = 0
KPG1 171106Z 34012KT 11/M09 A301 RMK A01 T01061092  RH  024%=      5-min Rain = 0
KPG1 171107Z 34012KT 11/M09 A301 RMK A01 T01061092  RH  024%=      5-min Rain = 0
KPG1 171108Z 34011KT 11/M09 A301 RMK A01 T01061092  RH  024%=      5-min Rain = 0
KPG1 171109Z 35009KT 11/M09 A301 RMK A01 T01051091  RH  024%=      5-min Rain = 0
KPG1 171110Z 35009KT 10/M09 A301 RMK A01 T01041091  RH  024%=      5-min Rain = 0
KPG1 171111Z 35006KT 10/M09 A301 RMK A01 T01021092  RH  025%=      5-min Rain = 0
KPG1 171112Z 36008KT 10/M09 A301 RMK A01 T01011092  RH  025%=      5-min Rain = 0
KPG1 171113Z 35007KT 10/M09 A301 RMK A01 T01001091  RH  025%=      5-min Rain = 0
KPG1 171114Z 36007KT 10/M09 A301 RMK A01 T01001091  RH  025%=      5-min Rain = 0
KPG1 171115Z 35007KT 10/M09 A301 RMK A01 T01011091  RH  025%=      5-min Rain = 0
KPG1 171116Z 35008KT 10/M09 A301 RMK A01 T01011091  RH  025%=      5-min Rain = 0
KPG1 171117Z 34006KT 10/M09 A301 RMK A01 T01011091  RH  025%=      5-min Rain = 0
KPG1 171118Z 35007KT 10/M09 A301 RMK A01 T01011091  RH  025%=      5-min Rain = 0
KPG1 171119Z 33006KT 10/M09 A301 RMK A01 T01011091  RH  025%=      5-min Rain = 0
KPG1 171120Z 34004KT 10/M09 A301 RMK A01 T01011092  RH  025%=      5-min Rain = 0
KPG1 171121Z 31003KT 10/M09 A3011 RMK A01 T01031092  RH  024%=      5-min Rain = 0
KPG1 171122Z 30003KT 10/M09 A3011 RMK A01 T01031092  RH  024%=      5-min Rain = 0
KPG1 171123Z 28002KT 10/M09 A3011 RMK A01 T01021092  RH  024%=      5-min Rain = 0
KPG1 171124Z 30004KT 10/M09 A3011 RMK A01 T01021092  RH  025%=      5-min Rain = 0
KPG1 171125Z 31004KT 10/M09 A3011 RMK A01 T01021092  RH  025%=      5-min Rain = 0
KPG1 171126Z 30004KT 10/M09 A3011 RMK A01 T01021092  RH  025%=      5-min Rain = 0
KPG1 171127Z 30004KT 10/M09 A3011 RMK A01 T01011092  RH  025%=      5-min Rain = 0
KPG1 171128Z 30004KT 10/M09 A3011 RMK A01 T01011092  RH  025%=      5-min Rain = 0
KPG1 171129Z 30004KT 10/M09 A3011 RMK A01 T00991092  RH  025%=      5-min Rain = 0
KPG1 171130Z 30006KT 10/M09 A3011 RMK A01 T00991092  RH  025%=      5-min Rain = 0
KPG1 171131Z 33005KT 10/M09 A3011 RMK A01 T00991092  RH  025%=      5-min Rain = 0
KPG1 171132Z 32008KT 10/M09 A3011 RMK A01 T00991091  RH  025%=      5-min Rain = 0
KPG1 171133Z 34006KT 10/M09 A3011 RMK A01 T00991091  RH  025%=      5-min Rain = 0
KPG1 171134Z 01005KT 10/M09 A3011 RMK A01 T00991090  RH  025%=      5-min Rain = 0
KPG1 171135Z 04002KT 10/M09 A3011 RMK A01 T00971090  RH  026%=      5-min Rain = 0
KPG1 171136Z 06003KT 09/M09 A3011 RMK A01 T00921090  RH  027%=      5-min Rain = 0
KPG1 171137Z 04003KT 09/M09 A3011 RMK A01 T00881090  RH  027%=      5-min Rain = 0
KPG1 171138Z 35002KT 09/M09 A3011 RMK A01 T00851090  RH  028%=      5-min Rain = 0
KPG1 171139Z 03004KT 09/M09 A3011 RMK A01 T00851090  RH  028%=      5-min Rain = 0
KPG1 171140Z 02004KT 09/M09 A3011 RMK A01 T00861090  RH  028%=      5-min Rain = 0
KPG1 171141Z 35003KT 09/M09 A3011 RMK A01 T00881089  RH  028%=      5-min Rain = 0
KPG1 171142Z 33007KT 09/M09 A3011 RMK A01 T00891089  RH  027%=      5-min Rain = 0
KPG1 171143Z 33007KT 09/M09 A3011 RMK A01 T00911089  RH  027%=      5-min Rain = 0
KPG1 171144Z 33008KT 09/M09 A3011 RMK A01 T00941089  RH  027%=      5-min Rain = 0
KPG1 171145Z 32006KT 10/M09 A3011 RMK A01 T00961089  RH  026%=      5-min Rain = 0
KPG1 171146Z 32007KT 10/M09 A3011 RMK A01 T00961089  RH  026%=      5-min Rain = 0
KPG1 171147Z 33005KT 10/M09 A3011 RMK A01 T00961089  RH  026%=      5-min Rain = 0
KPG1 171148Z 02003KT 10/M09 A3011 RMK A01 T00951089  RH  026%=      5-min Rain = 0
KPG1 171149Z 03004KT 09/M09 A3011 RMK A01 T00931090  RH  027%=      5-min Rain = 0
KPG1 171150Z 01004KT 09/M09 A3011 RMK A01 T00901090  RH  027%=      5-min Rain = 0
KPG1 171151Z 01003KT 09/M09 A3011 RMK A01 T00871089  RH  028%=      5-min Rain = 0
KPG1 171152Z 00004KT 08/M09 A3012 RMK A01 T00841089  RH  028%=      5-min Rain = 0
KPG1 171153Z 00005KT 08/M09 A3012 RMK A01 T00841090  RH  028%=      5-min Rain = 0
KPG1 171154Z 36005KT 09/M09 A3012 RMK A01 T00871089  RH  028%=      5-min Rain = 0
KPG1 171155Z 01005KT 09/M09 A3012 RMK A01 T00901088  RH  027%=      5-min Rain = 0
KPG1 171156Z 01006KT 09/M09 A3012 RMK A01 T00911088  RH  027%=      5-min Rain = 0
KPG1 171157Z 01006KT 09/M09 A3012 RMK A01 T00911088  RH  027%=      5-min Rain = 0
KPG1 171158Z 00007KT 09/M09 A3012 RMK A01 T00901088  RH  027%=      5-min Rain = 0
KPG1 171159Z 00007KT 09/M09 A3012 RMK A01 T00891088  RH  028%=      5-min Rain = 0
KPG1 171200Z 36008KT 09/M09 A3012 RMK A01 T00891088  RH  028%=      5-min Rain = 0
KPG1 171201Z 00007KT 09/M09 A3012 RMK A01 T00891088  RH  028%=      5-min Rain = 0
KPG1 171202Z 01007KT 09/M09 A3012 RMK A01 T00891087  RH  028%=      5-min Rain = 0
KPG1 171203Z 01007KT 09/M09 A3012 RMK A01 T00901088  RH  028%=      5-min Rain = 0
KPG1 171204Z 03006KT 09/M09 A3012 RMK A01 T00901087  RH  028%=      5-min Rain = 0
KPG1 171205Z 03007KT 09/M09 A3012 RMK A01 T00881087  RH  028%=      5-min Rain = 0
KPG1 171206Z 03006KT 09/M09 A3012 RMK A01 T00861087  RH  028%=      5-min Rain = 0
KPG1 171207Z 03007KT 08/M09 A3012 RMK A01 T00841087  RH  029%=      5-min Rain = 0
KPG1 171208Z 03007KT 08/M09 A3012 RMK A01 T00831086  RH  029%=      5-min Rain = 0
KPG1 171209Z 03007KT 08/M09 A3012 RMK A01 T00811086  RH  030%=      5-min Rain = 0
KPG1 171210Z 03006KT 08/M09 A3013 RMK A01 T00801086  RH  030%=      5-min Rain = 0
KPG1 171211Z 01005KT 08/M09 A3013 RMK A01 T00791085  RH  030%=      5-min Rain = 0
KPG1 171212Z 35005KT 08/M09 A3013 RMK A01 T00781085  RH  030%=      5-min Rain = 0
KPG1 171213Z 01006KT 08/M09 A3013 RMK A01 T00781086  RH  030%=      5-min Rain = 0
KPG1 171214Z 01006KT 08/M09 A3013 RMK A01 T00811085  RH  030%=      5-min Rain = 0
KPG1 171215Z 02006KT 09/M09 A3013 RMK A01 T00851085  RH  029%=      5-min Rain = 0
KPG1 171216Z 01006KT 09/M09 A3013 RMK A01 T00851086  RH  029%=      5-min Rain = 0
KPG1 171217Z 00006KT 09/M09 A3013 RMK A01 T00851086  RH  029%=      5-min Rain = 0
KPG1 171218Z 36006KT 09/M09 A3013 RMK A01 T00851088  RH  029%=      5-min Rain = 0
KPG1 171219Z 36006KT 08/M09 A3013 RMK A01 T00841087  RH  029%=      5-min Rain = 0
KPG1 171220Z 35006KT 08/M09 A3013 RMK A01 T00821088  RH  029%=      5-min Rain = 0
KPG1 171221Z 34006KT 08/M09 A3013 RMK A01 T00831087  RH  029%=      5-min Rain = 0
KPG1 171222Z 35005KT 08/M09 A3013 RMK A01 T00831087  RH  029%=      5-min Rain = 0
KPG1 171223Z 35005KT 08/M09 A3013 RMK A01 T00831088  RH  029%=      5-min Rain = 0
KPG1 171224Z 00004KT 08/M09 A3013 RMK A01 T00831087  RH  029%=      5-min Rain = 0
KPG1 171225Z 36004KT 08/M09 A3013 RMK A01 T00811087  RH  029%=      5-min Rain = 0
KPG1 171226Z 00005KT 08/M09 A3013 RMK A01 T00771087  RH  030%=      5-min Rain = 0
KPG1 171227Z 01005KT 07/M09 A3013 RMK A01 T00741087  RH  031%=      5-min Rain = 0
KPG1 171228Z 00005KT 07/M09 A3013 RMK A01 T00721087  RH  031%=      5-min Rain = 0
KPG1 171229Z 00006KT 07/M09 A3013 RMK A01 T00721086  RH  032%=      5-min Rain = 0
KPG1 171230Z 00005KT 07/M09 A3013 RMK A01 T00701085  RH  032%=      5-min Rain = 0
KPG1 171231Z 03003KT 07/M09 A3013 RMK A01 T00691085  RH  032%=      5-min Rain = 0
KPG1 171232Z 04004KT 07/M09 A3013 RMK A01 T00681085  RH  033%=      5-min Rain = 0
KPG1 171233Z 03004KT 07/M09 A3013 RMK A01 T00681085  RH  033%=      5-min Rain = 0
KPG1 171234Z 03004KT 07/M08 A3013 RMK A01 T00671084  RH  033%=      5-min Rain = 0
KPG1 171235Z 02003KT 07/M08 A3013 RMK A01 T00671084  RH  033%=      5-min Rain = 0
KPG1 171236Z 27002KT 07/M08 A3013 RMK A01 T00651082  RH  034%=      5-min Rain = 0
KPG1 171237Z 24003KT 06/M08 A3014 RMK A01 T00601081  RH  035%=      5-min Rain = 0
KPG1 171238Z 23002KT 06/M08 A3014 RMK A01 T00551080  RH  037%=      5-min Rain = 0
KPG1 171239Z 16002KT 05/M08 A3014 RMK A01 T00511080  RH  038%=      5-min Rain = 0
KPG1 171240Z 14001KT 05/M08 A3014 RMK A01 T00511080  RH  038%=      5-min Rain = 0
KPG1 171241Z 13001KT 05/M08 A3014 RMK A01 T00501080  RH  038%=      5-min Rain = 0
KPG1 171242Z 12001KT 05/M08 A3014 RMK A01 T00511079  RH  038%=      5-min Rain = 0
KPG1 171243Z 10001KT 05/M08 A3014 RMK A01 T00511081  RH  038%=      5-min Rain = 0
KPG1 171244Z 20001KT 05/M08 A3014 RMK A01 T00521081  RH  038%=      5-min Rain = 0
KPG1 171245Z 19001KT 05/M08 A3014 RMK A01 T00541081  RH  037%=      5-min Rain = 0
KPG1 171246Z 17000KT 06/M08 A3014 RMK A01 T00571081  RH  036%=      5-min Rain = 0
KPG1 171247Z 17000KT 06/M08 A3014 RMK A01 T00591082  RH  036%=      5-min Rain = 0
KPG1 171248Z 23002KT 06/M08 A3014 RMK A01 T00601082  RH  035%=      5-min Rain = 0
KPG1 171249Z 22003KT 06/M08 A3014 RMK A01 T00601081  RH  036%=      5-min Rain = 0
KPG1 171250Z 20002KT 06/M08 A3014 RMK A01 T00591082  RH  036%=      5-min Rain = 0
KPG1 171251Z 14002KT 06/M08 A3014 RMK A01 T00591079  RH  036%=      5-min Rain = 0
KPG1 171252Z 18001KT 06/M08 A3014 RMK A01 T00571079  RH  037%=      5-min Rain = 0
KPG1 171253Z 16001KT 06/M08 A3014 RMK A01 T00561080  RH  037%=      5-min Rain = 0
KPG1 171254Z 17001KT 06/M08 A3014 RMK A01 T00551080  RH  037%=      5-min Rain = 0
KPG1 171255Z 16002KT 06/M08 A3014 RMK A01 T00551081  RH  037%=      5-min Rain = 0
KPG1 171256Z 16003KT 06/M08 A3014 RMK A01 T00561079  RH  037%=      5-min Rain = 0
KPG1 171257Z 15003KT 06/M08 A3014 RMK A01 T00561079  RH  037%=      5-min Rain = 0
KPG1 171258Z 14003KT 06/M08 A3014 RMK A01 T00561078  RH  037%=      5-min Rain = 0
KPG1 171259Z 13002KT 06/M08 A3014 RMK A01 T00551078  RH  038%=      5-min Rain = 0
KPG1 171300Z 14002KT 05/M08 A3014 RMK A01 T00541078  RH  038%=      5-min Rain = 0
KPG1 171301Z 14001KT 05/M08 A3014 RMK A01 T00541078  RH  038%=      5-min Rain = 0
KPG1 171302Z 14001KT 05/M08 A3014 RMK A01 T00531078  RH  038%=      5-min Rain = 0
KPG1 171303Z 22000KT 05/M08 A3014 RMK A01 T00531078  RH  038%=      5-min Rain = 0
KPG1 171304Z 21001KT 05/M08 A3014 RMK A01 T00521078  RH  038%=      5-min Rain = 0
KPG1 171305Z 19001KT 05/M08 A3014 RMK A01 T00521078  RH  039%=      5-min Rain = 0
KPG1 171306Z 22001KT 05/M08 A3014 RMK A01 T00521078  RH  039%=      5-min Rain = 0
KPG1 171307Z 16001KT 05/M08 A3014 RMK A01 T00521078  RH  038%=      5-min Rain = 0
KPG1 171308Z 19001KT 05/M08 A3014 RMK A01 T00531078  RH  038%=      5-min Rain = 0
KPG1 171309Z 26000KT 05/M08 A3014 RMK A01 T00541078  RH  038%=      5-min Rain = 0
KPG1 171310Z 26001KT 05/M08 A3014 RMK A01 T00541077  RH  038%=      5-min Rain = 0
KPG1 171311Z 25000KT 05/M08 A3014 RMK A01 T00541077  RH  038%=      5-min Rain = 0
KPG1 171312Z 11000KT 05/M08 A3014 RMK A01 T00531077  RH  038%=      5-min Rain = 0
KPG1 171313Z 00000KT 05/M08 A3014 RMK A01 T00541077  RH  038%=      5-min Rain = 0
KPG1 171314Z 16000KT 06/M08 A3014 RMK A01 T00551077  RH  038%=      5-min Rain = 0
KPG1 171315Z 28001KT 06/M08 A3014 RMK A01 T00551078  RH  038%=      5-min Rain = 0
KPG1 171316Z 28000KT 06/M08 A3014 RMK A01 T00561078  RH  037%=      5-min Rain = 0
KPG1 171317Z 00000KT 06/M08 A3014 RMK A01 T00581079  RH  037%=      5-min Rain = 0
KPG1 171318Z 22000KT 06/M08 A3014 RMK A01 T00591079  RH  036%=      5-min Rain = 0
KPG1 171319Z 22003KT 06/M08 A3014 RMK A01 T00611079  RH  036%=      5-min Rain = 0
KPG1 171320Z 20004KT 06/M08 A3014 RMK A01 T00591078  RH  037%=      5-min Rain = 0
KPG1 171321Z 21003KT 05/M08 A3014 RMK A01 T00531076  RH  039%=      5-min Rain = 0
KPG1 171322Z 21003KT 05/M08 A3015 RMK A01 T00491076  RH  040%=      5-min Rain = 0
KPG1 171323Z 22003KT 05/M08 A3015 RMK A01 T00471076  RH  041%=      5-min Rain = 0
KPG1 171324Z 23003KT 05/M08 A3015 RMK A01 T00461075  RH  041%=      5-min Rain = 0
KPG1 171325Z 23003KT 05/M08 A3015 RMK A01 T00451075  RH  041%=      5-min Rain = 0
KPG1 171326Z 23003KT 04/M08 A3015 RMK A01 T00431075  RH  042%=      5-min Rain = 0
KPG1 171327Z 22004KT 04/M07 A3015 RMK A01 T00411074  RH  043%=      5-min Rain = 0
KPG1 171328Z 22004KT 04/M07 A3015 RMK A01 T00391073  RH  044%=      5-min Rain = 0
KPG1 171329Z 22004KT 04/M07 A3015 RMK A01 T00371072  RH  045%=      5-min Rain = 0
KPG1 171330Z 21004KT 04/M07 A3015 RMK A01 T00351071  RH  046%=      5-min Rain = 0
KPG1 171331Z 21003KT 03/M07 A3015 RMK A01 T00331070  RH  047%=      5-min Rain = 0
KPG1 171332Z 22003KT 03/M07 A3015 RMK A01 T00311069  RH  048%=      5-min Rain = 0
KPG1 171333Z 24002KT 03/M07 A3015 RMK A01 T00301068  RH  049%=      5-min Rain = 0
KPG1 171334Z 24003KT 03/M07 A3015 RMK A01 T00291067  RH  049%=      5-min Rain = 0
KPG1 171335Z 23003KT 03/M07 A3015 RMK A01 T00281067  RH  049%=      5-min Rain = 0
KPG1 171336Z 22003KT 03/M07 A3015 RMK A01 T00281067  RH  050%=      5-min Rain = 0
KPG1 171337Z 22003KT 03/M07 A3015 RMK A01 T00271065  RH  051%=      5-min Rain = 0
KPG1 171338Z 22002KT 03/M06 A3015 RMK A01 T00271064  RH  051%=      5-min Rain = 0
KPG1 171339Z 22002KT 03/M06 A3015 RMK A01 T00261064  RH  051%=      5-min Rain = 0
KPG1 171340Z 23002KT 03/M06 A3015 RMK A01 T00251064  RH  052%=      5-min Rain = 0
KPG1 171341Z 22001KT 03/M06 A3015 RMK A01 T00251064  RH  052%=      5-min Rain = 0
KPG1 171342Z 19001KT 03/M07 A3015 RMK A01 T00251065  RH  052%=      5-min Rain = 0
KPG1 171343Z 22001KT 03/M06 A3016 RMK A01 T00251064  RH  052%=      5-min Rain = 0
KPG1 171344Z 23001KT 02/M06 A3016 RMK A01 T00241064  RH  052%=      5-min Rain = 0
KPG1 171345Z 21001KT 02/M06 A3016 RMK A01 T00241064  RH  052%=      5-min Rain = 0
KPG1 171346Z 17001KT 03/M06 A3016 RMK A01 T00251063  RH  052%=      5-min Rain = 0
KPG1 171347Z 17002KT 02/M06 A3016 RMK A01 T00241063  RH  052%=      5-min Rain = 0
KPG1 171348Z 16002KT 03/M06 A3016 RMK A01 T00251063  RH  052%=      5-min Rain = 0
KPG1 171349Z 17000KT 03/M06 A3016 RMK A01 T00251063  RH  052%=      5-min Rain = 0
KPG1 171350Z 00000KT 03/M06 A3016 RMK A01 T00261063  RH  052%=      5-min Rain = 0
KPG1 171351Z 15000KT 03/M06 A3016 RMK A01 T00261063  RH  052%=      5-min Rain = 0
KPG1 171352Z 22001KT 03/M06 A3016 RMK A01 T00261064  RH  052%=      5-min Rain = 0
KPG1 171353Z 25001KT 03/M06 A3016 RMK A01 T00271064  RH  051%=      5-min Rain = 0
KPG1 171354Z 19000KT 03/M06 A3016 RMK A01 T00271064  RH  051%=      5-min Rain = 0
KPG1 171355Z 19000KT 03/M06 A3016 RMK A01 T00281063  RH  051%=      5-min Rain = 0
KPG1 171356Z 18001KT 03/M06 A3016 RMK A01 T00261064  RH  052%=      5-min Rain = 0
KPG1 171357Z 22001KT 03/M06 A3016 RMK A01 T00261064  RH  052%=      5-min Rain = 0
KPG1 171358Z 23003KT 03/M06 A3016 RMK A01 T00251064  RH  052%=      5-min Rain = 0
KPG1 171359Z 22003KT 03/M06 A3016 RMK A01 T00251064  RH  052%=      5-min Rain = 0
KPG1 171400Z 23003KT 03/M07 A3016 RMK A01 T00261065  RH  051%=      5-min Rain = 0
KPG1 171401Z 23003KT 03/M07 A3016 RMK A01 T00271065  RH  051%=      5-min Rain = 0
KPG1 171402Z 23003KT 03/M07 A3016 RMK A01 T00271066  RH  050%=      5-min Rain = 0
KPG1 171403Z 24004KT 03/M07 A3016 RMK A01 T00271066  RH  050%=      5-min Rain = 0
KPG1 171404Z 23005KT 03/M07 A3016 RMK A01 T00271066  RH  050%=      5-min Rain = 0
KPG1 171405Z 23004KT 03/M07 A3016 RMK A01 T00281066  RH  050%=      5-min Rain = 0
KPG1 171406Z 23004KT 03/M07 A3016 RMK A01 T00301066  RH  049%=      5-min Rain = 0
KPG1 171407Z 24004KT 03/M07 A3016 RMK A01 T00321065  RH  049%=      5-min Rain = 0
KPG1 171408Z 24005KT 03/M07 A3016 RMK A01 T00341065  RH  048%=      5-min Rain = 0
KPG1 171409Z 23005KT 03/M07 A3016 RMK A01 T00341066  RH  048%=      5-min Rain = 0
KPG1 171410Z 22006KT 03/M07 A3016 RMK A01 T00341066  RH  048%=      5-min Rain = 0
KPG1 171411Z 21006KT 03/M07 A3016 RMK A01 T00331066  RH  048%=      5-min Rain = 0
KPG1 171412Z 21005KT 03/M07 A3016 RMK A01 T00341066  RH  048%=      5-min Rain = 0
KPG1 171413Z 21005KT 03/M07 A3016 RMK A01 T00341065  RH  048%=      5-min Rain = 0
KPG1 171414Z 21004KT 03/M07 A3016 RMK A01 T00341065  RH  048%=      5-min Rain = 0
KPG1 171415Z 21004KT 03/M07 A3016 RMK A01 T00341065  RH  048%=      5-min Rain = 0
KPG1 171416Z 21003KT 03/M07 A3016 RMK A01 T00331065  RH  049%=      5-min Rain = 0
KPG1 171417Z 22003KT 03/M07 A3016 RMK A01 T00321065  RH  049%=      5-min Rain = 0
KPG1 171418Z 22003KT 03/M07 A3016 RMK A01 T00311065  RH  049%=      5-min Rain = 0
KPG1 171419Z 21002KT 03/M07 A3017 RMK A01 T00301065  RH  050%=      5-min Rain = 0
KPG1 171420Z 21003KT 03/M06 A3017 RMK A01 T00301064  RH  050%=      5-min Rain = 0
KPG1 171421Z 22002KT 03/M06 A3017 RMK A01 T00301064  RH  050%=      5-min Rain = 0
KPG1 171422Z 21002KT 03/M06 A3017 RMK A01 T00301064  RH  050%=      5-min Rain = 0
KPG1 171423Z 24001KT 03/M06 A3017 RMK A01 T00311064  RH  050%=      5-min Rain = 0
KPG1 171424Z 26001KT 03/M06 A3017 RMK A01 T00321064  RH  049%=      5-min Rain = 0
KPG1 171425Z 26000KT 03/M06 A3017 RMK A01 T00331063  RH  049%=      5-min Rain = 0
KPG1 171426Z 00000KT 03/M06 A3017 RMK A01 T00311064  RH  050%=      5-min Rain = 0
KPG1 171427Z 00000KT 03/M07 A3016 RMK A01 T00281065  RH  051%=      5-min Rain = 0
KPG1 171428Z 00000KT 03/M07 A3016 RMK A01 T00261066  RH  051%=      5-min Rain = 0
KPG1 171429Z 00000KT 03/M07 A3016 RMK A01 T00251065  RH  052%=      5-min Rain = 0
KPG1 171430Z 23000KT 02/M06 A3016 RMK A01 T00241064  RH  052%=      5-min Rain = 0
KPG1 171431Z 22002KT 02/M06 A3016 RMK A01 T00241064  RH  052%=      5-min Rain = 0
KPG1 171432Z 21002KT 03/M06 A3016 RMK A01 T00271062  RH  052%=      5-min Rain = 0
KPG1 171433Z 21002KT 03/M06 A3016 RMK A01 T00301062  RH  051%=      5-min Rain = 0
KPG1 171434Z 21001KT 03/M06 A3016 RMK A01 T00321061  RH  050%=      5-min Rain = 0
KPG1 171435Z 21002KT 03/M06 A3017 RMK A01 T00331061  RH  050%=      5-min Rain = 0
KPG1 171436Z 22002KT 03/M06 A3017 RMK A01 T00341061  RH  050%=      5-min Rain = 0
KPG1 171437Z 23002KT 04/M06 A3017 RMK A01 T00351061  RH  049%=      5-min Rain = 0
KPG1 171438Z 22001KT 04/M06 A3017 RMK A01 T00361061  RH  049%=      5-min Rain = 0
KPG1 171439Z 19000KT 04/M06 A3017 RMK A01 T00371060  RH  049%=      5-min Rain = 0
KPG1 171440Z 24002KT 04/M06 A3017 RMK A01 T00381059  RH  049%=      5-min Rain = 0
KPG1 171441Z 22002KT 04/M06 A3016 RMK A01 T00381060  RH  049%=      5-min Rain = 0
KPG1 171442Z 21004KT 04/M06 A3016 RMK A01 T00391061  RH  048%=      5-min Rain = 0
KPG1 171443Z 22005KT 04/M06 A3016 RMK A01 T00411060  RH  048%=      5-min Rain = 0
KPG1 171444Z 22004KT 04/M06 A3017 RMK A01 T00421059  RH  048%=      5-min Rain = 0
KPG1 171445Z 23004KT 04/M06 A3017 RMK A01 T00421059  RH  048%=      5-min Rain = 0
KPG1 171446Z 23003KT 04/M06 A3017 RMK A01 T00421058  RH  048%=      5-min Rain = 0
KPG1 171447Z 24004KT 04/M06 A3017 RMK A01 T00421058  RH  048%=      5-min Rain = 0
KPG1 171448Z 23003KT 04/M06 A3017 RMK A01 T00421058  RH  048%=      5-min Rain = 0
KPG1 171449Z 23003KT 04/M06 A3017 RMK A01 T00421059  RH  048%=      5-min Rain = 0
KPG1 171450Z 21004KT 04/M06 A3017 RMK A01 T00421060  RH  047%=      5-min Rain = 0
KPG1 171451Z 21003KT 04/M06 A3017 RMK A01 T00421060  RH  047%=      5-min Rain = 0
KPG1 171452Z 22003KT 04/M06 A3017 RMK A01 T00431060  RH  047%=      5-min Rain = 0
KPG1 171453Z 21003KT 04/M06 A3017 RMK A01 T00441060  RH  047%=      5-min Rain = 0
KPG1 171454Z 20002KT 04/M06 A3017 RMK A01 T00441060  RH  047%=      5-min Rain = 0
KPG1 171455Z 22002KT 05/M06 A3017 RMK A01 T00451061  RH  046%=      5-min Rain = 0
KPG1 171456Z 20002KT 05/M06 A3017 RMK A01 T00461062  RH  046%=      5-min Rain = 0
KPG1 171457Z 19001KT 05/M06 A3017 RMK A01 T00461062  RH  046%=      5-min Rain = 0
KPG1 171458Z 22002KT 05/M06 A3017 RMK A01 T00471061  RH  045%=      5-min Rain = 0
KPG1 171459Z 22002KT 05/M06 A3017 RMK A01 T00481062  RH  045%=      5-min Rain = 0
KPG1 171500Z 21002KT 05/M06 A3017 RMK A01 T00481062  RH  045%=      5-min Rain = 0
KPG1 171501Z 21001KT 05/M06 A3017 RMK A01 T00481061  RH  045%=      5-min Rain = 0
KPG1 171502Z 19001KT 05/M06 A3017 RMK A01 T00491060  RH  045%=      5-min Rain = 0
KPG1 171503Z 21002KT 05/M06 A3017 RMK A01 T00511059  RH  045%=      5-min Rain = 0
KPG1 171504Z 21002KT 05/M06 A3017 RMK A01 T00511061  RH  044%=      5-min Rain = 0
KPG1 171505Z 22002KT 05/M06 A3017 RMK A01 T00521061  RH  044%=      5-min Rain = 0
KPG1 171506Z 22002KT 05/M06 A3018 RMK A01 T00521061  RH  044%=      5-min Rain = 0
KPG1 171507Z 20002KT 05/M06 A3018 RMK A01 T00521061  RH  044%=      5-min Rain = 0
KPG1 171508Z 21002KT 05/M06 A3018 RMK A01 T00541060  RH  044%=      5-min Rain = 0
KPG1 171509Z 22002KT 06/M06 A3018 RMK A01 T00551059  RH  044%=      5-min Rain = 0
KPG1 171510Z 22003KT 06/M06 A3018 RMK A01 T00561060  RH  043%=      5-min Rain = 0
KPG1 171511Z 21004KT 06/M06 A3018 RMK A01 T00561059  RH  043%=      5-min Rain = 0
KPG1 171512Z 20004KT 06/M06 A3018 RMK A01 T00561058  RH  044%=      5-min Rain = 0
KPG1 171513Z 20004KT 06/M06 A3018 RMK A01 T00571057  RH  044%=      5-min Rain = 0
KPG1 171514Z 20004KT 06/M06 A3018 RMK A01 T00581056  RH  044%=      5-min Rain = 0
KPG1 171515Z 20003KT 06/M06 A3018 RMK A01 T00601056  RH  043%=      5-min Rain = 0
KPG1 171516Z 22003KT 06/M06 A3018 RMK A01 T00601057  RH  043%=      5-min Rain = 0
KPG1 171517Z 21003KT 06/M06 A3018 RMK A01 T00591058  RH  043%=      5-min Rain = 0
KPG1 171518Z 21004KT 06/M06 A3018 RMK A01 T00581058  RH  043%=      5-min Rain = 0
KPG1 171519Z 22004KT 06/M06 A3018 RMK A01 T00571059  RH  043%=      5-min Rain = 0
KPG1 171520Z 22004KT 06/M06 A3018 RMK A01 T00571058  RH  043%=      5-min Rain = 0
KPG1 171521Z 22004KT 06/M06 A3018 RMK A01 T00571058  RH  043%=      5-min Rain = 0
KPG1 171522Z 22005KT 06/M06 A3018 RMK A01 T00571057  RH  044%=      5-min Rain = 0
KPG1 171523Z 22004KT 06/M06 A3018 RMK A01 T00561057  RH  044%=      5-min Rain = 0
KPG1 171524Z 21005KT 06/M06 A3018 RMK A01 T00561057  RH  044%=      5-min Rain = 0
KPG1 171525Z 21004KT 06/M06 A3018 RMK A01 T00561058  RH  044%=      5-min Rain = 0
KPG1 171526Z 21004KT 06/M06 A3018 RMK A01 T00561058  RH  044%=      5-min Rain = 0
KPG1 171527Z 21003KT 06/M06 A3018 RMK A01 T00571058  RH  043%=      5-min Rain = 0
KPG1 171528Z 20003KT 06/M06 A3018 RMK A01 T00571058  RH  043%=      5-min Rain = 0
KPG1 171529Z 21003KT 06/M06 A3018 RMK A01 T00591058  RH  043%=      5-min Rain = 0
KPG1 171530Z 20003KT 06/M06 A3018 RMK A01 T00591058  RH  043%=      5-min Rain = 0
KPG1 171531Z 21003KT 06/M06 A3018 RMK A01 T00601057  RH  043%=      5-min Rain = 0
KPG1 171532Z 20004KT 06/M06 A3018 RMK A01 T00621056  RH  043%=      5-min Rain = 0
KPG1 171533Z 20004KT 06/M06 A3019 RMK A01 T00621056  RH  042%=      5-min Rain = 0
KPG1 171534Z 19004KT 06/M06 A3018 RMK A01 T00631056  RH  042%=      5-min Rain = 0
KPG1 171535Z 18003KT 07/M05 A3018 RMK A01 T00661054  RH  042%=      5-min Rain = 0
KPG1 171536Z 20003KT 07/M05 A3018 RMK A01 T00691054  RH  041%=      5-min Rain = 0
KPG1 171537Z 19004KT 07/M06 A3018 RMK A01 T00701055  RH  041%=      5-min Rain = 0
KPG1 171538Z 20003KT 07/M06 A3018 RMK A01 T00711056  RH  040%=      5-min Rain = 0
KPG1 171539Z 20004KT 07/M06 A3018 RMK A01 T00691058  RH  040%=      5-min Rain = 0
KPG1 171540Z 20004KT 07/M06 A3018 RMK A01 T00681058  RH  040%=      5-min Rain = 0
KPG1 171541Z 20004KT 07/M06 A3018 RMK A01 T00681058  RH  040%=      5-min Rain = 0
KPG1 171542Z 21004KT 07/M06 A3018 RMK A01 T00691056  RH  041%=      5-min Rain = 0
KPG1 171543Z 21005KT 07/M06 A3018 RMK A01 T00711056  RH  040%=      5-min Rain = 0
KPG1 171544Z 20004KT 07/M06 A3018 RMK A01 T00711057  RH  040%=      5-min Rain = 0
KPG1 171545Z 22004KT 07/M06 A3018 RMK A01 T00711057  RH  040%=      5-min Rain = 0
KPG1 171546Z 21004KT 07/M06 A3018 RMK A01 T00711057  RH  040%=      5-min Rain = 0
KPG1 171547Z 20004KT 07/M06 A3018 RMK A01 T00711056  RH  040%=      5-min Rain = 0
KPG1 171548Z 21004KT 07/M06 A3018 RMK A01 T00731056  RH  039%=      5-min Rain = 0
KPG1 171549Z 20004KT 07/M06 A3018 RMK A01 T00741058  RH  039%=      5-min Rain = 0
KPG1 171550Z 21004KT 07/M06 A3018 RMK A01 T00741058  RH  039%=      5-min Rain = 0
KPG1 171551Z 20004KT 08/M06 A3018 RMK A01 T00751057  RH  039%=      5-min Rain = 0
KPG1 171552Z 20004KT 08/M06 A3018 RMK A01 T00771058  RH  038%=      5-min Rain = 0
KPG1 171553Z 20005KT 08/M06 A3018 RMK A01 T00771060  RH  037%=      5-min Rain = 0
KPG1 171554Z 20005KT 08/M06 A3019 RMK A01 T00781061  RH  037%=      5-min Rain = 0
KPG1 171555Z 19005KT 08/M06 A3019 RMK A01 T00781062  RH  036%=      5-min Rain = 0
KPG1 171556Z 19005KT 08/M06 A3019 RMK A01 T00801061  RH  036%=      5-min Rain = 0
KPG1 171557Z 19005KT 08/M06 A3019 RMK A01 T00801062  RH  036%=      5-min Rain = 0
KPG1 171558Z 18004KT 08/M06 A3019 RMK A01 T00791062  RH  036%=      5-min Rain = 0
KPG1 171559Z 18005KT 08/M06 A3019 RMK A01 T00801063  RH  036%=      5-min Rain = 0
KPG1 171600Z 19004KT 08/M06 A3019 RMK A01 T00821064  RH  035%=      5-min Rain = 0
KPG1 171601Z 20004KT 08/M06 A3019 RMK A01 T00821063  RH  035%=      5-min Rain = 0
KPG1 171602Z 19003KT 08/M06 A3019 RMK A01 T00821064  RH  035%=      5-min Rain = 0
KPG1 171603Z 18004KT 08/M07 A3019 RMK A01 T00821066  RH  034%=      5-min Rain = 0
KPG1 171604Z 19004KT 08/M06 A3019 RMK A01 T00831064  RH  035%=      5-min Rain = 0
KPG1 171605Z 20003KT 09/M06 A3019 RMK A01 T00851061  RH  035%=      5-min Rain = 0
KPG1 171606Z 19004KT 09/M06 A3019 RMK A01 T00881061  RH  034%=      5-min Rain = 0
KPG1 171607Z 18004KT 09/M06 A3019 RMK A01 T00891061  RH  034%=      5-min Rain = 0
KPG1 171608Z 18004KT 09/M06 A3019 RMK A01 T00921059  RH  034%=      5-min Rain = 0
KPG1 171609Z 17003KT 10/M06 A3019 RMK A01 T00951059  RH  033%=      5-min Rain = 0
KPG1 171610Z 16004KT 10/M06 A3019 RMK A01 T00961061  RH  032%=      5-min Rain = 0
KPG1 171611Z 17005KT 10/M06 A3018 RMK A01 T00961063  RH  032%=      5-min Rain = 0
KPG1 171612Z 18005KT 10/M07 A3018 RMK A01 T00961065  RH  032%=      5-min Rain = 0
KPG1 171613Z 17005KT 10/M07 A3018 RMK A01 T00951065  RH  032%=      5-min Rain = 0
KPG1 171614Z 18005KT 10/M06 A3018 RMK A01 T00961063  RH  032%=      5-min Rain = 0
KPG1 171615Z 18004KT 10/M06 A3018 RMK A01 T00981064  RH  032%=      5-min Rain = 0
KPG1 171616Z 18003KT 10/M07 A3018 RMK A01 T00961066  RH  031%=      5-min Rain = 0
KPG1 171617Z 18004KT 10/M06 A3019 RMK A01 T00971064  RH  032%=      5-min Rain = 0
KPG1 171618Z 17005KT 10/M06 A3019 RMK A01 T00971064  RH  031%=      5-min Rain = 0
KPG1 171619Z 19004KT 10/M06 A3019 RMK A01 T00991064  RH  031%=      5-min Rain = 0
KPG1 171620Z 17005KT 10/M07 A3019 RMK A01 T00991066  RH  031%=      5-min Rain = 0
KPG1 171621Z 18005KT 10/M07 A3019 RMK A01 T01001065  RH  031%=      5-min Rain = 0
KPG1 171622Z 19005KT 10/M06 A3019 RMK A01 T01011064  RH  031%=      5-min Rain = 0
KPG1 171623Z 19004KT 10/M06 A3019 RMK A01 T01031061  RH  031%=      5-min Rain = 0
KPG1 171624Z 19005KT 10/M06 A3019 RMK A01 T01041063  RH  030%=      5-min Rain = 0
KPG1 171625Z 19006KT 10/M06 A3019 RMK A01 T01041062  RH  031%=      5-min Rain = 0
KPG1 171626Z 18006KT 10/M06 A3019 RMK A01 T01041063  RH  030%=      5-min Rain = 0
KPG1 171627Z 19005KT 11/M06 A3019 RMK A01 T01051064  RH  030%=      5-min Rain = 0
KPG1 171628Z 19006KT 10/M07 A3019 RMK A01 T01041065  RH  030%=      5-min Rain = 0
KPG1 171629Z 18005KT 10/M07 A3019 RMK A01 T01031065  RH  030%=      5-min Rain = 0
KPG1 171630Z 18005KT 10/M06 A3019 RMK A01 T01031063  RH  031%=      5-min Rain = 0
KPG1 171631Z 18005KT 11/M06 A3019 RMK A01 T01051063  RH  030%=      5-min Rain = 0
KPG1 171632Z 18005KT 11/M06 A3018 RMK A01 T01051062  RH  030%=      5-min Rain = 0
KPG1 171633Z 19006KT 11/M06 A3018 RMK A01 T01061061  RH  030%=      5-min Rain = 0
KPG1 171634Z 19004KT 11/M06 A3018 RMK A01 T01071059  RH  031%=      5-min Rain = 0
KPG1 171635Z 18004KT 11/M06 A3018 RMK A01 T01081058  RH  031%=      5-min Rain = 0
KPG1 171636Z 19005KT 11/M06 A3018 RMK A01 T01101059  RH  030%=      5-min Rain = 0
KPG1 171637Z 18005KT 11/M06 A3018 RMK A01 T01101059  RH  030%=      5-min Rain = 0
KPG1 171638Z 17004KT 11/M06 A3019 RMK A01 T01091060  RH  030%=      5-min Rain = 0
KPG1 171639Z 19005KT 11/M06 A3019 RMK A01 T01111060  RH  029%=      5-min Rain = 0
KPG1 171640Z 19004KT 11/M06 A3019 RMK A01 T01101063  RH  029%=      5-min Rain = 0
KPG1 171641Z 21003KT 11/M06 A3019 RMK A01 T01081063  RH  030%=      5-min Rain = 0
KPG1 171642Z 20005KT 11/M06 A3019 RMK A01 T01091060  RH  030%=      5-min Rain = 0
KPG1 171643Z 19005KT 11/M06 A3019 RMK A01 T01111060  RH  030%=      5-min Rain = 0
KPG1 171644Z 18006KT 11/M06 A3019 RMK A01 T01141060  RH  029%=      5-min Rain = 0
KPG1 171645Z 19006KT 12/M06 A3019 RMK A01 T01171060  RH  028%=      5-min Rain = 0
KPG1 171646Z 18005KT 12/M06 A3019 RMK A01 T01181061  RH  028%=      5-min Rain = 0
KPG1 171647Z 19005KT 12/M06 A3019 RMK A01 T01181060  RH  028%=      5-min Rain = 0
KPG1 171648Z 20006KT 12/M06 A3019 RMK A01 T01201059  RH  028%=      5-min Rain = 0
KPG1 171649Z 19006KT 12/M06 A3019 RMK A01 T01201060  RH  028%=      5-min Rain = 0
KPG1 171650Z 21005KT 12/M06 A3019 RMK A01 T01191060  RH  028%=      5-min Rain = 0
KPG1 171651Z 21005KT 12/M06 A3019 RMK A01 T01181062  RH  028%=      5-min Rain = 0
KPG1 171652Z 24005KT 12/M07 A3019 RMK A01 T01171065  RH  027%=      5-min Rain = 0
KPG1 171653Z 22006KT 12/M06 A3019 RMK A01 T01171064  RH  027%=      5-min Rain = 0
KPG1 171654Z 23006KT 12/M06 A3019 RMK A01 T01191063  RH  027%=      5-min Rain = 0
KPG1 171655Z 22005KT 12/M06 A3019 RMK A01 T01191064  RH  027%=      5-min Rain = 0
KPG1 171656Z 21006KT 12/M06 A3019 RMK A01 T01201064  RH  027%=      5-min Rain = 0
KPG1 171657Z 21005KT 12/M06 A3019 RMK A01 T01201064  RH  027%=      5-min Rain = 0
KPG1 171658Z 21006KT 12/M07 A3019 RMK A01 T01191065  RH  027%=      5-min Rain = 0
KPG1 171659Z 21006KT 12/M06 A3019 RMK A01 T01201064  RH  027%=      5-min Rain = 0
KPG1 171700Z 20006KT 12/M07 A3019 RMK A01 T01201065  RH  027%=      5-min Rain = 0
KPG1 171701Z 20006KT 12/M06 A3019 RMK A01 T01221063  RH  027%=      5-min Rain = 0
KPG1 171702Z 22007KT 12/M06 A3019 RMK A01 T01241062  RH  027%=      5-min Rain = 0
KPG1 171703Z 23005KT 13/M06 A3019 RMK A01 T01251064  RH  026%=      5-min Rain = 0
KPG1 171704Z 21005KT 12/M07 A3019 RMK A01 T01241066  RH  026%=      5-min Rain = 0
KPG1 171705Z 21006KT 12/M07 A3019 RMK A01 T01241065  RH  026%=      5-min Rain = 0
KPG1 171706Z 21005KT 12/M07 A302 RMK A01 T01241066  RH  026%=      5-min Rain = 0
KPG1 171707Z 22006KT 12/M07 A302 RMK A01 T01241068  RH  026%=      5-min Rain = 0
KPG1 171708Z 22005KT 12/M07 A302 RMK A01 T01241071  RH  025%=      5-min Rain = 0
KPG1 171709Z 21004KT 12/M07 A302 RMK A01 T01231073  RH  025%=      5-min Rain = 0
KPG1 171710Z 20004KT 12/M07 A302 RMK A01 T01241071  RH  025%=      5-min Rain = 0
KPG1 171711Z 19005KT 13/M07 A3019 RMK A01 T01251072  RH  025%=      5-min Rain = 0
KPG1 171712Z 18005KT 13/M07 A3019 RMK A01 T01271074  RH  024%=      5-min Rain = 0
KPG1 171713Z 17005KT 13/M07 A3019 RMK A01 T01301071  RH  024%=      5-min Rain = 0
KPG1 171714Z 17005KT 13/M07 A3019 RMK A01 T01331067  RH  024%=      5-min Rain = 0
KPG1 171715Z 18005KT 13/M07 A3019 RMK A01 T01341066  RH  024%=      5-min Rain = 0
KPG1 171716Z 20004KT 14/M07 A3019 RMK A01 T01351065  RH  024%=      5-min Rain = 0
KPG1 171717Z 24004KT 14/M07 A3019 RMK A01 T01361072  RH  023%=      5-min Rain = 0
KPG1 171718Z 20004KT 14/M08 A3019 RMK A01 T01361076  RH  022%=      5-min Rain = 0
KPG1 171719Z 24005KT 14/M07 A3019 RMK A01 T01351074  RH  023%=      5-min Rain = 0
KPG1 171720Z 21005KT 13/M07 A3019 RMK A01 T01341074  RH  023%=      5-min Rain = 0
KPG1 171721Z 18005KT 13/M07 A3019 RMK A01 T01341071  RH  023%=      5-min Rain = 0
KPG1 171722Z 20004KT 14/M07 A3019 RMK A01 T01371071  RH  023%=      5-min Rain = 0
KPG1 171723Z 20004KT 14/M07 A3019 RMK A01 T01361073  RH  023%=      5-min Rain = 0
KPG1 171724Z 18005KT 14/M07 A3019 RMK A01 T01351070  RH  023%=      5-min Rain = 0
KPG1 171725Z 18004KT 14/M07 A3019 RMK A01 T01361068  RH  024%=      5-min Rain = 0
KPG1 171726Z 20004KT 14/M07 A3019 RMK A01 T01361066  RH  024%=      5-min Rain = 0
KPG1 171727Z 20004KT 14/M07 A3019 RMK A01 T01351068  RH  024%=      5-min Rain = 0
KPG1 171728Z 18006KT 14/M07 A3019 RMK A01 T01371069  RH  023%=      5-min Rain = 0
KPG1 171729Z 20005KT 14/M07 A3019 RMK A01 T01411072  RH  022%=      5-min Rain = 0
KPG1 171730Z 21005KT 14/M08 A3019 RMK A01 T01431076  RH  021%=      5-min Rain = 0
KPG1 171731Z 22006KT 14/M08 A3019 RMK A01 T01431077  RH  021%=      5-min Rain = 0
KPG1 171732Z 23003KT 14/M08 A3019 RMK A01 T01411078  RH  021%=      5-min Rain = 0
KPG1 171733Z 23003KT 14/M08 A3019 RMK A01 T01401078  RH  021%=      5-min Rain = 0
KPG1 171734Z 20004KT 14/M07 A3019 RMK A01 T01421070  RH  022%=      5-min Rain = 0
KPG1 171735Z 23005KT 15/M07 A3019 RMK A01 T01471068  RH  022%=      5-min Rain = 0
KPG1 171736Z 18005KT 15/M07 A3019 RMK A01 T01481069  RH  022%=      5-min Rain = 0
KPG1 171737Z 22005KT 15/M07 A3019 RMK A01 T01491067  RH  022%=      5-min Rain = 0
KPG1 171738Z 18005KT 15/M07 A3019 RMK A01 T01491067  RH  022%=      5-min Rain = 0
KPG1 171739Z 21006KT 15/M07 A3019 RMK A01 T01511068  RH  022%=      5-min Rain = 0
KPG1 171740Z 21006KT 15/M07 A3019 RMK A01 T01511073  RH  021%=      5-min Rain = 0
KPG1 171741Z 22006KT 15/M08 A3019 RMK A01 T01481077  RH  020%=      5-min Rain = 0
KPG1 171742Z 21006KT 15/M08 A3018 RMK A01 T01451080  RH  020%=      5-min Rain = 0
KPG1 171743Z 20005KT 14/M08 A3018 RMK A01 T01441079  RH  021%=      5-min Rain = 0
KPG1 171744Z 19004KT 14/M08 A3018 RMK A01 T01441079  RH  021%=      5-min Rain = 0
KPG1 171745Z 18003KT 14/M07 A3018 RMK A01 T01441071  RH  022%=      5-min Rain = 0
KPG1 171746Z 18002KT 15/M07 A3018 RMK A01 T01471065  RH  023%=      5-min Rain = 0
KPG1 171747Z 20003KT 15/M06 A3018 RMK A01 T01491063  RH  022%=      5-min Rain = 0
KPG1 171748Z 19004KT 15/M06 A3018 RMK A01 T01511064  RH  022%=      5-min Rain = 0
KPG1 171749Z 15003KT 15/M06 A3018 RMK A01 T01521063  RH  022%=      5-min Rain = 0
KPG1 171750Z 23003KT 15/M06 A3018 RMK A01 T01541064  RH  022%=      5-min Rain = 0
KPG1 171751Z 22003KT 15/M07 A3018 RMK A01 T01541073  RH  020%=      5-min Rain = 0
KPG1 171752Z 22004KT 15/M07 A3018 RMK A01 T01531071  RH  021%=      5-min Rain = 0
KPG1 171753Z 20005KT 15/M07 A3018 RMK A01 T01531068  RH  021%=      5-min Rain = 0
KPG1 171754Z 20006KT 15/M07 A3018 RMK A01 T01541065  RH  022%=      5-min Rain = 0
KPG1 171755Z 20006KT 16/M07 A3018 RMK A01 T01551065  RH  021%=      5-min Rain = 0
KPG1 171756Z 19006KT 16/M07 A3018 RMK A01 T01551068  RH  021%=      5-min Rain = 0
KPG1 171757Z 20006KT 15/M07 A3018 RMK A01 T01521069  RH  021%=      5-min Rain = 0
KPG1 171758Z 18003KT 15/M07 A3018 RMK A01 T01511070  RH  021%=      5-min Rain = 0
KPG1 171759Z 18003KT 15/M07 A3018 RMK A01 T01521070  RH  021%=      5-min Rain = 0
KPG1 171800Z 17005KT 15/M07 A3018 RMK A01 T01531068  RH  021%=      5-min Rain = 0
KPG1 171801Z 17004KT 15/M07 A3018 RMK A01 T01541070  RH  021%=      5-min Rain = 0
KPG1 171802Z 16006KT 15/M07 A3018 RMK A01 T01541070  RH  021%=      5-min Rain = 0
KPG1 171803Z 16004KT 16/M07 A3018 RMK A01 T01551070  RH  021%=      5-min Rain = 0
KPG1 171804Z 20005G10KT 16/M07 A3018 RMK A01 T01551070  RH  021%=      5-min Rain = 0
KPG1 171805Z 22006KT 16/M07 A3018 RMK A01 T01571068  RH  021%=      5-min Rain = 0
KPG1 171806Z 20007KT 16/M07 A3017 RMK A01 T01581072  RH  020%=      5-min Rain = 0
KPG1 171807Z 19007KT 16/M07 A3017 RMK A01 T01561073  RH  020%=      5-min Rain = 0
KPG1 171808Z 20006KT 16/M07 A3017 RMK A01 T01551073  RH  020%=      5-min Rain = 0
KPG1 171809Z 19006KT 15/M07 A3017 RMK A01 T01541073  RH  020%=      5-min Rain = 0
KPG1 171810Z 20006KT 16/M07 A3017 RMK A01 T01551071  RH  020%=      5-min Rain = 0
KPG1 171811Z 20003KT 16/M07 A3017 RMK A01 T01561073  RH  020%=      5-min Rain = 0
KPG1 171812Z 18004KT 16/M07 A3016 RMK A01 T01581071  RH  020%=      5-min Rain = 0
KPG1 171813Z 17005KT 16/M07 A3016 RMK A01 T01601072  RH  020%=      5-min Rain = 0
KPG1 171814Z 18005KT 16/M07 A3016 RMK A01 T01601072  RH  020%=      5-min Rain = 0
KPG1 171815Z 18006KT 16/M07 A3016 RMK A01 T01601072  RH  020%=      5-min Rain = 0
KPG1 171816Z 20004KT 16/M07 A3016 RMK A01 T01591072  RH  020%=      5-min Rain = 0
KPG1 171817Z 20004KT 16/M07 A3016 RMK A01 T01591073  RH  020%=      5-min Rain = 0
KPG1 171818Z 19004KT 16/M08 A3016 RMK A01 T01591075  RH  019%=      5-min Rain = 0
KPG1 171819Z 21006KT 16/M07 A3015 RMK A01 T01611070  RH  020%=      5-min Rain = 0
KPG1 171820Z 21007KT 17/M07 A3015 RMK A01 T01651072  RH  019%=      5-min Rain = 0
KPG1 171821Z 21006KT 16/M08 A3015 RMK A01 T01631075  RH  019%=      5-min Rain = 0
KPG1 171822Z 20006KT 16/M08 A3015 RMK A01 T01611075  RH  019%=      5-min Rain = 0
KPG1 171823Z 18007KT 16/M07 A3015 RMK A01 T01601072  RH  020%=      5-min Rain = 0
KPG1 171824Z 18008KT 16/M07 A3015 RMK A01 T01611072  RH  019%=      5-min Rain = 0
KPG1 171825Z 17007KT 16/M07 A3015 RMK A01 T01611071  RH  020%=      5-min Rain = 0
KPG1 171826Z 19007KT 16/M07 A3015 RMK A01 T01621071  RH  020%=      5-min Rain = 0
KPG1 171827Z 20008KT 16/M07 A3015 RMK A01 T01631073  RH  019%=      5-min Rain = 0
KPG1 171828Z 20005KT 16/M08 A3015 RMK A01 T01621076  RH  019%=      5-min Rain = 0
KPG1 171829Z 19003KT 16/M08 A3015 RMK A01 T01611075  RH  019%=      5-min Rain = 0
KPG1 171830Z 16006KT 16/M07 A3014 RMK A01 T01621072  RH  019%=      5-min Rain = 0
KPG1 171831Z 17008KT 16/M07 A3014 RMK A01 T01641070  RH  019%=      5-min Rain = 0
KPG1 171832Z 19006KT 17/M07 A3014 RMK A01 T01671069  RH  019%=      5-min Rain = 0
KPG1 171833Z 16006KT 17/M07 A3014 RMK A01 T01671070  RH  019%=      5-min Rain = 0
KPG1 171834Z 16005KT 17/M07 A3014 RMK A01 T01671071  RH  019%=      5-min Rain = 0
KPG1 171835Z 18008KT 17/M07 A3014 RMK A01 T01671071  RH  019%=      5-min Rain = 0
KPG1 171836Z 19008KT 17/M07 A3014 RMK A01 T01681071  RH  019%=      5-min Rain = 0
KPG1 171837Z 19008KT 17/M07 A3014 RMK A01 T01711069  RH  019%=      5-min Rain = 0
KPG1 171838Z 19008KT 17/M07 A3014 RMK A01 T01741069  RH  018%=      5-min Rain = 0
KPG1 171839Z 19008KT 17/M07 A3013 RMK A01 T01731072  RH  018%=      5-min Rain = 0
KPG1 171840Z 19007KT 17/M07 A3013 RMK A01 T01711073  RH  018%=      5-min Rain = 0
KPG1 171841Z 18008KT 17/M07 A3013 RMK A01 T01701073  RH  018%=      5-min Rain = 0
KPG1 171842Z 18009KT 17/M07 A3013 RMK A01 T01691073  RH  018%=      5-min Rain = 0
KPG1 171843Z 18008KT 17/M07 A3013 RMK A01 T01681074  RH  018%=      5-min Rain = 0
KPG1 171844Z 18008KT 17/M07 A3013 RMK A01 T01711070  RH  019%=      5-min Rain = 0
KPG1 171845Z 17008KT 17/M07 A3013 RMK A01 T01711069  RH  019%=      5-min Rain = 0
KPG1 171846Z 17006KT 17/M07 A3013 RMK A01 T01711069  RH  019%=      5-min Rain = 0
KPG1 171847Z 17008KT 17/M07 A3013 RMK A01 T01711068  RH  019%=      5-min Rain = 0
KPG1 171848Z 18010KT 17/M07 A3013 RMK A01 T01711068  RH  019%=      5-min Rain = 0
KPG1 171849Z 18009KT 17/M07 A3012 RMK A01 T01711069  RH  019%=      5-min Rain = 0
KPG1 171850Z 17008KT 17/M07 A3012 RMK A01 T01701069  RH  019%=      5-min Rain = 0
KPG1 171851Z 17006KT 17/M07 A3012 RMK A01 T01711069  RH  019%=      5-min Rain = 0
KPG1 171852Z 16003KT 17/M07 A3012 RMK A01 T01711069  RH  019%=      5-min Rain = 0
KPG1 171853Z 16008KT 17/M07 A3012 RMK A01 T01721068  RH  019%=      5-min Rain = 0
KPG1 171854Z 15009KT 17/M07 A3012 RMK A01 T01731070  RH  018%=      5-min Rain = 0
KPG1 171855Z 17009KT 17/M07 A3012 RMK A01 T01731070  RH  018%=      5-min Rain = 0
KPG1 171856Z 17009KT 17/M07 A3012 RMK A01 T01741071  RH  018%=      5-min Rain = 0
KPG1 171857Z 17010KT 17/M07 A3012 RMK A01 T01741072  RH  018%=      5-min Rain = 0
KPG1 171858Z 18010KT 18/M07 A3012 RMK A01 T01761073  RH  018%=      5-min Rain = 0
KPG1 171859Z 19008KT 18/M07 A3012 RMK A01 T01761073  RH  018%=      5-min Rain = 0
KPG1 171900Z 22007KT 18/M07 A3012 RMK A01 T01751074  RH  018%=      5-min Rain = 0
KPG1 171901Z 21005KT 17/M07 A3012 RMK A01 T01731074  RH  018%=      5-min Rain = 0
KPG1 171902Z 19008KT 17/M07 A3012 RMK A01 T01731072  RH  018%=      5-min Rain = 0
KPG1 171903Z 18008KT 17/M07 A3011 RMK A01 T01741073  RH  018%=      5-min Rain = 0
KPG1 171904Z 20007KT 17/M07 A3011 RMK A01 T01741074  RH  018%=      5-min Rain = 0
KPG1 171905Z 21004KT 17/M08 A3011 RMK A01 T01711076  RH  018%=      5-min Rain = 0
KPG1 171906Z 21006KT 17/M07 A3011 RMK A01 T01711073  RH  018%=      5-min Rain = 0
KPG1 171907Z 19007KT 17/M07 A3011 RMK A01 T01731072  RH  018%=      5-min Rain = 0
KPG1 171908Z 17006KT 18/M07 A3011 RMK A01 T01771071  RH  018%=      5-min Rain = 0
KPG1 171909Z 21008KT 18/M07 A3011 RMK A01 T01781072  RH  018%=      5-min Rain = 0
KPG1 171910Z 22009KT 18/M07 A3011 RMK A01 T01791072  RH  017%=      5-min Rain = 0
KPG1 171911Z 22007KT 18/M07 A3011 RMK A01 T01791072  RH  017%=      5-min Rain = 0
KPG1 171912Z 22007KT 18/M07 A3011 RMK A01 T01801071  RH  017%=      5-min Rain = 0
KPG1 171913Z 19010KT 18/M07 A3011 RMK A01 T01801073  RH  017%=      5-min Rain = 0
KPG1 171914Z 20008KT 18/M07 A3011 RMK A01 T01821073  RH  017%=      5-min Rain = 0
KPG1 171915Z 19009KT 18/M07 A3011 RMK A01 T01841074  RH  017%=      5-min Rain = 0
KPG1 171916Z 20009KT 18/M08 A301 RMK A01 T01831075  RH  017%=      5-min Rain = 0
KPG1 171917Z 19009KT 18/M08 A301 RMK A01 T01841076  RH  016%=      5-min Rain = 0
KPG1 171918Z 20007KT 18/M08 A301 RMK A01 T01831078  RH  016%=      5-min Rain = 0
KPG1 171919Z 19006KT 18/M08 A301 RMK A01 T01821078  RH  016%=      5-min Rain = 0
KPG1 171920Z 20009KT 18/M08 A301 RMK A01 T01821076  RH  017%=      5-min Rain = 0
KPG1 171921Z 19007KT 18/M07 A301 RMK A01 T01831072  RH  017%=      5-min Rain = 0
KPG1 171922Z 18008KT 19/M07 A301 RMK A01 T01871069  RH  017%=      5-min Rain = 0
KPG1 171923Z 18010KT 19/M07 A301 RMK A01 T01891069  RH  017%=      5-min Rain = 0
KPG1 171924Z 19008KT 19/M07 A301 RMK A01 T01891071  RH  017%=      5-min Rain = 0
KPG1 171925Z 18007KT 19/M07 A301 RMK A01 T01871071  RH  017%=      5-min Rain = 0
KPG1 171926Z 19004KT 19/M07 A301 RMK A01 T01871071  RH  017%=      5-min Rain = 0
KPG1 171927Z 14008KT 19/M07 A301 RMK A01 T01891069  RH  017%=      5-min Rain = 0
KPG1 171928Z 15006KT 19/M07 A301 RMK A01 T01901067  RH  017%=      5-min Rain = 0
KPG1 171929Z 18007KT 19/M07 A301 RMK A01 T01931066  RH  017%=      5-min Rain = 0
KPG1 171930Z 19009KT 20/M07 A301 RMK A01 T01961070  RH  016%=      5-min Rain = 0
KPG1 171931Z 20011KT 20/M08 A301 RMK A01 T01951075  RH  015%=      5-min Rain = 0
KPG1 171932Z 22011KT 19/M08 A301 RMK A01 T01921075  RH  016%=      5-min Rain = 0
KPG1 171933Z 23008KT 19/M08 A3009 RMK A01 T01901077  RH  016%=      5-min Rain = 0
KPG1 171934Z 22008KT 19/M08 A3009 RMK A01 T01891077  RH  016%=      5-min Rain = 0
KPG1 171935Z 19010KT 19/M07 A3009 RMK A01 T01911071  RH  016%=      5-min Rain = 0
KPG1 171936Z 21007KT 19/M07 A3009 RMK A01 T01921073  RH  016%=      5-min Rain = 0
KPG1 171937Z 22006KT 19/M07 A3009 RMK A01 T01911074  RH  016%=      5-min Rain = 0
KPG1 171938Z 20005KT 19/M08 A3009 RMK A01 T01911075  RH  016%=      5-min Rain = 0
KPG1 171939Z 18005G10KT 19/M07 A3009 RMK A01 T01931073  RH  016%=      5-min Rain = 0
KPG1 171940Z 17008KT 20/M07 A3009 RMK A01 T01951069  RH  016%=      5-min Rain = 0
KPG1 171941Z 16009KT 20/M07 A3009 RMK A01 T01961069  RH  016%=      5-min Rain = 0
KPG1 171942Z 17007KT 19/M07 A3009 RMK A01 T01941072  RH  016%=      5-min Rain = 0
KPG1 171943Z 17006KT 19/M07 A3008 RMK A01 T01941071  RH  016%=      5-min Rain = 0
KPG1 171944Z 17011KT 20/M07 A3008 RMK A01 T01951071  RH  016%=      5-min Rain = 0
KPG1 171945Z 17009KT 20/M08 A3008 RMK A01 T01961075  RH  015%=      5-min Rain = 0
KPG1 171946Z 17010KT 20/M07 A3008 RMK A01 T01971074  RH  015%=      5-min Rain = 0
KPG1 171947Z 17009KT 20/M07 A3008 RMK A01 T01981074  RH  015%=      5-min Rain = 0
KPG1 171948Z 18008KT 20/M07 A3008 RMK A01 T01971074  RH  015%=      5-min Rain = 0
KPG1 171949Z 16008KT 20/M07 A3008 RMK A01 T01961073  RH  015%=      5-min Rain = 0
KPG1 171950Z 16009KT 20/M07 A3008 RMK A01 T01971074  RH  015%=      5-min Rain = 0
KPG1 171951Z 18010KT 20/M08 A3008 RMK A01 T01981075  RH  015%=      5-min Rain = 0
KPG1 171952Z 16008KT 20/M08 A3008 RMK A01 T02001075  RH  015%=      5-min Rain = 0
KPG1 171953Z 18006KT 20/M08 A3008 RMK A01 T02001076  RH  015%=      5-min Rain = 0
KPG1 171954Z 15007KT 20/M08 A3008 RMK A01 T01991075  RH  015%=      5-min Rain = 0
KPG1 171955Z 16010KT 20/M08 A3008 RMK A01 T02001075  RH  015%=      5-min Rain = 0
KPG1 171956Z 17009KT 20/M08 A3007 RMK A01 T02011079  RH  014%=      5-min Rain = 0
KPG1 171957Z 17008KT 20/M08 A3007 RMK A01 T02021078  RH  014%=      5-min Rain = 0
KPG1 171958Z 14010KT 20/M08 A3007 RMK A01 T02031077  RH  014%=      5-min Rain = 0
KPG1 171959Z 16011KT 21/M08 A3007 RMK A01 T02051078  RH  014%=      5-min Rain = 0
KPG1 172000Z 15009KT 21/M08 A3007 RMK A01 T02051078  RH  014%=      5-min Rain = 0
KPG1 172001Z 15011KT 20/M08 A3007 RMK A01 T02031079  RH  014%=      5-min Rain = 0
KPG1 172002Z 15009KT 20/M08 A3007 RMK A01 T02031082  RH  014%=      5-min Rain = 0
KPG1 172003Z 18008KT 20/M08 A3007 RMK A01 T02031079  RH  014%=      5-min Rain = 0
KPG1 172004Z 17007KT 21/M08 A3007 RMK A01 T02061077  RH  014%=      5-min Rain = 0
KPG1 172005Z 16009KT 21/M08 A3007 RMK A01 T02081075  RH  014%=      5-min Rain = 0
KPG1 172006Z 15009KT 21/M08 A3007 RMK A01 T02091075  RH  014%=      5-min Rain = 0
KPG1 172007Z 16009KT 21/M08 A3007 RMK A01 T02081075  RH  014%=      5-min Rain = 0
KPG1 172008Z 17007KT 20/M08 A3007 RMK A01 T02041078  RH  014%=      5-min Rain = 0
KPG1 172009Z 18008KT 20/M08 A3007 RMK A01 T02021076  RH  015%=      5-min Rain = 0
KPG1 172010Z 19007KT 20/M08 A3007 RMK A01 T02021076  RH  015%=      5-min Rain = 0
KPG1 172011Z 20007KT 20/M08 A3007 RMK A01 T02021081  RH  014%=      5-min Rain = 0
KPG1 172012Z 18006KT 20/M08 A3006 RMK A01 T02031079  RH  014%=      5-min Rain = 0
KPG1 172013Z 17006KT 21/M08 A3006 RMK A01 T02051076  RH  014%=      5-min Rain = 0
KPG1 172014Z 19007KT 21/M08 A3006 RMK A01 T02071075  RH  014%=      5-min Rain = 0
KPG1 172015Z 20005KT 21/M08 A3006 RMK A01 T02081076  RH  014%=      5-min Rain = 0
KPG1 172016Z 23006KT 21/M08 A3006 RMK A01 T02091076  RH  014%=      5-min Rain = 0
KPG1 172017Z 22008KT 21/M08 A3006 RMK A01 T02081076  RH  014%=      5-min Rain = 0
KPG1 172018Z 20011KT 21/M08 A3006 RMK A01 T02081078  RH  014%=      5-min Rain = 0
KPG1 172019Z 21011KT 21/M09 A3006 RMK A01 T02091089  RH  013%=      5-min Rain = 0
KPG1 172020Z 23013KT 21/M09 A3006 RMK A01 T02101092  RH  012%=      5-min Rain = 0
KPG1 172021Z 23013KT 21/M09 A3006 RMK A01 T02131091  RH  012%=      5-min Rain = 0
KPG1 172022Z 21012KT 21/M09 A3006 RMK A01 T02141092  RH  012%=      5-min Rain = 0
KPG1 172023Z 21012KT 22/M10 A3006 RMK A01 T02151095  RH  012%=      5-min Rain = 0
KPG1 172024Z 20011KT 21/M09 A3006 RMK A01 T02141093  RH  012%=      5-min Rain = 0
KPG1 172025Z 20012KT 22/M09 A3006 RMK A01 T02161093  RH  012%=      5-min Rain = 0
KPG1 172026Z 20010KT 22/M09 A3006 RMK A01 T02181092  RH  012%=      5-min Rain = 0
KPG1 172027Z 19010KT 22/M09 A3006 RMK A01 T02191092  RH  012%=      5-min Rain = 0
KPG1 172028Z 20011KT 22/M09 A3006 RMK A01 T02191094  RH  011%=      5-min Rain = 0
KPG1 172029Z 20013KT 22/M09 A3005 RMK A01 T02201092  RH  012%=      5-min Rain = 0
KPG1 172030Z 20012KT 22/M09 A3005 RMK A01 T02201093  RH  011%=      5-min Rain = 0
KPG1 172031Z 22013KT 22/M10 A3005 RMK A01 T02171098  RH  011%=      5-min Rain = 0
KPG1 172032Z 22014KT 22/M10 A3005 RMK A01 T02151098  RH  011%=      5-min Rain = 0
KPG1 172033Z 22012KT 21/M10 A3006 RMK A01 T02141100  RH  011%=      5-min Rain = 0
KPG1 172034Z 21011KT 21/M10 A3006 RMK A01 T02121100  RH  011%=      5-min Rain = 0
KPG1 172035Z 22009KT 21/M10 A3006 RMK A01 T02131098  RH  011%=      5-min Rain = 0
KPG1 172036Z 22011KT 21/M10 A3006 RMK A01 T02141096  RH  012%=      5-min Rain = 0
KPG1 172037Z 23013KT 22/M10 A3006 RMK A01 T02151097  RH  011%=      5-min Rain = 0
KPG1 172038Z 24013KT 22/M10 A3006 RMK A01 T02151098  RH  011%=      5-min Rain = 0
KPG1 172039Z 24011KT 21/M10 A3006 RMK A01 T02141098  RH  011%=      5-min Rain = 0
KPG1 172040Z 22008KT 21/M10 A3006 RMK A01 T02121101  RH  011%=      5-min Rain = 0
KPG1 172041Z 23008KT 21/M10 A3006 RMK A01 T02111097  RH  012%=      5-min Rain = 0
KPG1 172042Z 21008KT 21/M10 A3006 RMK A01 T02141098  RH  012%=      5-min Rain = 0
KPG1 172043Z 22010KT 22/M10 A3006 RMK A01 T02151097  RH  011%=      5-min Rain = 0
KPG1 172044Z 21009KT 22/M10 A3006 RMK A01 T02151097  RH  011%=      5-min Rain = 0
KPG1 172045Z 22009KT 22/M10 A3006 RMK A01 T02151099  RH  011%=      5-min Rain = 0
KPG1 172046Z 22008KT 21/M10 A3006 RMK A01 T02121101  RH  011%=      5-min Rain = 0
KPG1 172047Z 22007KT 21/M10 A3006 RMK A01 T02111099  RH  012%=      5-min Rain = 0
KPG1 172048Z 23013KT 21/M10 A3005 RMK A01 T02141096  RH  012%=      5-min Rain = 0
KPG1 172049Z 24013KT 22/M10 A3005 RMK A01 T02161098  RH  011%=      5-min Rain = 0
KPG1 172050Z 23009KT 21/M10 A3005 RMK A01 T02141098  RH  011%=      5-min Rain = 0
KPG1 172051Z 23008KT 21/M10 A3005 RMK A01 T02141096  RH  012%=      5-min Rain = 0
KPG1 172052Z 23008G13KT 22/M10 A3006 RMK A01 T02171095  RH  012%=      5-min Rain = 0
KPG1 172053Z 23015KT 22/M10 A3005 RMK A01 T02181097  RH  011%=      5-min Rain = 0
KPG1 172054Z 24014KT 22/M10 A3006 RMK A01 T02161099  RH  011%=      5-min Rain = 0
KPG1 172055Z 24012KT 21/M10 A3006 RMK A01 T02141100  RH  011%=      5-min Rain = 0
KPG1 172056Z 22011KT 21/M10 A3006 RMK A01 T02131102  RH  011%=      5-min Rain = 0
KPG1 172057Z 23011KT 21/M10 A3006 RMK A01 T02121103  RH  011%=      5-min Rain = 0
KPG1 172058Z 23010KT 21/M10 A3006 RMK A01 T02121102  RH  011%=      5-min Rain = 0
KPG1 172059Z 21011KT 21/M10 A3005 RMK A01 T02121101  RH  011%=      5-min Rain = 0
KPG1 172100Z 22013KT 21/M10 A3005 RMK A01 T02141100  RH  011%=      5-min Rain = 0
KPG1 172101Z 21012KT 22/M10 A3005 RMK A01 T02151102  RH  011%=      5-min Rain = 0
KPG1 172102Z 21011KT 21/M10 A3005 RMK A01 T02141103  RH  011%=      5-min Rain = 0
KPG1 172103Z 22011KT 21/M10 A3005 RMK A01 T02141101  RH  011%=      5-min Rain = 0
KPG1 172104Z 20011KT 22/M10 A3005 RMK A01 T02151101  RH  011%=      5-min Rain = 0
KPG1 172105Z 22011KT 22/M10 A3005 RMK A01 T02151100  RH  011%=      5-min Rain = 0
KPG1 172106Z 22011KT 22/M10 A3005 RMK A01 T02151099  RH  011%=      5-min Rain = 0
KPG1 172107Z 25008KT 22/M10 A3005 RMK A01 T02161099  RH  011%=      5-min Rain = 0
KPG1 172108Z 23007KT 22/M10 A3005 RMK A01 T02161099  RH  011%=      5-min Rain = 0
KPG1 172109Z 21011KT 22/M10 A3005 RMK A01 T02151099  RH  011%=      5-min Rain = 0
KPG1 172110Z 23013KT 22/M10 A3005 RMK A01 T02151097  RH  011%=      5-min Rain = 0
KPG1 172111Z 23012KT 22/M10 A3005 RMK A01 T02151098  RH  011%=      5-min Rain = 0
KPG1 172112Z 23011KT 21/M10 A3005 RMK A01 T02141098  RH  011%=      5-min Rain = 0
KPG1 172113Z 22012KT 21/M10 A3005 RMK A01 T02131097  RH  012%=      5-min Rain = 0
KPG1 172114Z 23010KT 22/M10 A3005 RMK A01 T02151097  RH  011%=      5-min Rain = 0
KPG1 172115Z 23012KT 22/M10 A3005 RMK A01 T02161097  RH  011%=      5-min Rain = 0
KPG1 172116Z 24012KT 22/M10 A3005 RMK A01 T02151098  RH  011%=      5-min Rain = 0
KPG1 172117Z 24010KT 21/M10 A3005 RMK A01 T02141100  RH  011%=      5-min Rain = 0
KPG1 172118Z 24009KT 21/M10 A3005 RMK A01 T02131098  RH  011%=      5-min Rain = 0
KPG1 172119Z 23008KT 22/M10 A3005 RMK A01 T02151097  RH  012%=      5-min Rain = 0
KPG1 172120Z 23007KT 22/M10 A3005 RMK A01 T02161098  RH  011%=      5-min Rain = 0
KPG1 172121Z 21009KT 22/M10 A3005 RMK A01 T02151097  RH  011%=      5-min Rain = 0
KPG1 172122Z 21012KT 22/M09 A3005 RMK A01 T02181093  RH  012%=      5-min Rain = 0
KPG1 172123Z 21010KT 22/M10 A3005 RMK A01 T02181095  RH  011%=      5-min Rain = 0
KPG1 172124Z 22009KT 22/M10 A3005 RMK A01 T02191096  RH  011%=      5-min Rain = 0
KPG1 172125Z 22010KT 22/M10 A3005 RMK A01 T02191096  RH  011%=      5-min Rain = 0
KPG1 172126Z 20014KT 22/M10 A3005 RMK A01 T02171096  RH  011%=      5-min Rain = 0
KPG1 172127Z 21014KT 22/M10 A3005 RMK A01 T02161097  RH  011%=      5-min Rain = 0
KPG1 172128Z 21012KT 22/M10 A3005 RMK A01 T02151098  RH  011%=      5-min Rain = 0
KPG1 172129Z 21013KT 21/M10 A3005 RMK A01 T02141097  RH  011%=      5-min Rain = 0
KPG1 172130Z 20011KT 22/M10 A3005 RMK A01 T02151097  RH  011%=      5-min Rain = 0
KPG1 172131Z 21010KT 21/M10 A3005 RMK A01 T02141097  RH  012%=      5-min Rain = 0
KPG1 172132Z 21012KT 21/M10 A3005 RMK A01 T02141097  RH  012%=      5-min Rain = 0
KPG1 172133Z 21011KT 21/M10 A3005 RMK A01 T02141097  RH  012%=      5-min Rain = 0
KPG1 172134Z 21010KT 21/M10 A3005 RMK A01 T02141096  RH  012%=      5-min Rain = 0
KPG1 172135Z 21010KT 22/M10 A3005 RMK A01 T02161095  RH  012%=      5-min Rain = 0
KPG1 172136Z 22012KT 22/M10 A3005 RMK A01 T02161098  RH  011%=      5-min Rain = 0
KPG1 172137Z 21014KT 22/M10 A3005 RMK A01 T02161098  RH  011%=      5-min Rain = 0
KPG1 172138Z 20012KT 22/M10 A3005 RMK A01 T02161098  RH  011%=      5-min Rain = 0
KPG1 172139Z 20012KT 22/M10 A3005 RMK A01 T02151100  RH  011%=      5-min Rain = 0
KPG1 172140Z 22010KT 22/M10 A3005 RMK A01 T02151098  RH  011%=      5-min Rain = 0
KPG1 172141Z 20011KT 22/M10 A3005 RMK A01 T02161097  RH  011%=      5-min Rain = 0
KPG1 172142Z 20010KT 22/M10 A3005 RMK A01 T02181097  RH  011%=      5-min Rain = 0
KPG1 172143Z 20009KT 22/M10 A3005 RMK A01 T02171098  RH  011%=      5-min Rain = 0
KPG1 172144Z 22011KT 22/M10 A3005 RMK A01 T02181096  RH  011%=      5-min Rain = 0
KPG1 172145Z 22013KT 22/M10 A3005 RMK A01 T02201096  RH  011%=      5-min Rain = 0
KPG1 172146Z 22011KT 22/M10 A3005 RMK A01 T02201098  RH  011%=      5-min Rain = 0
KPG1 172147Z 20010KT 22/M10 A3005 RMK A01 T02191098  RH  011%=      5-min Rain = 0
KPG1 172148Z 20011KT 22/M10 A3004 RMK A01 T02171099  RH  011%=      5-min Rain = 0
KPG1 172149Z 21012KT 22/M10 A3004 RMK A01 T02171098  RH  011%=      5-min Rain = 0
KPG1 172150Z 23011KT 22/M10 A3005 RMK A01 T02181097  RH  011%=      5-min Rain = 0
KPG1 172151Z 24009KT 22/M10 A3005 RMK A01 T02181097  RH  011%=      5-min Rain = 0
KPG1 172152Z 23008KT 22/M10 A3004 RMK A01 T02171098  RH  011%=      5-min Rain = 0
KPG1 172153Z 23007KT 22/M10 A3004 RMK A01 T02171098  RH  011%=      5-min Rain = 0
KPG1 172154Z 22008KT 22/M09 A3004 RMK A01 T02191094  RH  011%=      5-min Rain = 0
KPG1 172155Z 20011KT 22/M10 A3004 RMK A01 T02211095  RH  011%=      5-min Rain = 0
KPG1 172156Z 20011KT 22/M10 A3004 RMK A01 T02221096  RH  011%=      5-min Rain = 0
KPG1 172157Z 21012KT 22/M10 A3004 RMK A01 T02211097  RH  011%=      5-min Rain = 0
KPG1 172158Z 21012KT 22/M10 A3004 RMK A01 T02191098  RH  011%=      5-min Rain = 0
KPG1 172159Z 21011KT 22/M10 A3004 RMK A01 T02191099  RH  011%=      5-min Rain = 0
KPG1 172200Z 20011KT 22/M10 A3004 RMK A01 T02181098  RH  011%=      5-min Rain = 0
KPG1 172201Z 21010KT 22/M10 A3004 RMK A01 T02181099  RH  011%=      5-min Rain = 0
KPG1 172202Z 21010KT 22/M10 A3004 RMK A01 T02181098  RH  011%=      5-min Rain = 0
KPG1 172203Z 22010KT 22/M10 A3004 RMK A01 T02181097  RH  011%=      5-min Rain = 0
KPG1 172204Z 22012KT 22/M10 A3004 RMK A01 T02181098  RH  011%=      5-min Rain = 0
KPG1 172205Z 21011KT 22/M10 A3004 RMK A01 T02171099  RH  011%=      5-min Rain = 0
KPG1 172206Z 21011KT 22/M10 A3004 RMK A01 T02161098  RH  011%=      5-min Rain = 0
KPG1 172207Z 21011KT 22/M10 A3004 RMK A01 T02161099  RH  011%=      5-min Rain = 0
KPG1 172208Z 21009KT 21/M10 A3004 RMK A01 T02141100  RH  011%=      5-min Rain = 0
KPG1 172209Z 20010KT 21/M10 A3004 RMK A01 T02141098  RH  011%=      5-min Rain = 0
KPG1 172210Z 21007KT 21/M10 A3004 RMK A01 T02141098  RH  011%=      5-min Rain = 0
KPG1 172211Z 21007KT 22/M10 A3004 RMK A01 T02161096  RH  011%=      5-min Rain = 0
KPG1 172212Z 22012KT 22/M09 A3004 RMK A01 T02191094  RH  011%=      5-min Rain = 0
KPG1 172213Z 23012KT 22/M10 A3004 RMK A01 T02191097  RH  011%=      5-min Rain = 0
KPG1 172214Z 23010KT 22/M10 A3004 RMK A01 T02171098  RH  011%=      5-min Rain = 0
KPG1 172215Z 21011KT 22/M10 A3004 RMK A01 T02171098  RH  011%=      5-min Rain = 0
KPG1 172216Z 21012KT 22/M10 A3004 RMK A01 T02171097  RH  011%=      5-min Rain = 0
KPG1 172217Z 20013KT 22/M10 A3004 RMK A01 T02181098  RH  011%=      5-min Rain = 0
KPG1 172218Z 20012KT 22/M10 A3004 RMK A01 T02171100  RH  011%=      5-min Rain = 0
KPG1 172219Z 21009KT 22/M10 A3004 RMK A01 T02171100  RH  011%=      5-min Rain = 0
KPG1 172220Z 21010KT 22/M10 A3004 RMK A01 T02171099  RH  011%=      5-min Rain = 0
KPG1 172221Z 22010KT 22/M10 A3004 RMK A01 T02171099  RH  011%=      5-min Rain = 0
KPG1 172222Z 21011KT 22/M10 A3004 RMK A01 T02171099  RH  011%=      5-min Rain = 0
KPG1 172223Z 20011KT 22/M10 A3004 RMK A01 T02171099  RH  011%=      5-min Rain = 0
KPG1 172224Z 22011KT 22/M10 A3004 RMK A01 T02171099  RH  011%=      5-min Rain = 0
KPG1 172225Z 22010KT 22/M10 A3004 RMK A01 T02161098  RH  011%=      5-min Rain = 0
KPG1 172226Z 22010KT 22/M10 A3004 RMK A01 T02161098  RH  011%=      5-min Rain = 0
KPG1 172227Z 21010KT 22/M10 A3004 RMK A01 T02161098  RH  011%=      5-min Rain = 0
KPG1 172228Z 20009KT 22/M10 A3004 RMK A01 T02171096  RH  011%=      5-min Rain = 0
KPG1 172229Z 21008KT 22/M10 A3004 RMK A01 T02181097  RH  011%=      5-min Rain = 0
KPG1 172230Z 21008KT 22/M09 A3004 RMK A01 T02191094  RH  011%=      5-min Rain = 0
KPG1 172231Z 22012KT 22/M10 A3004 RMK A01 T02211095  RH  011%=      5-min Rain = 0
KPG1 172232Z 21012KT 22/M10 A3004 RMK A01 T02201098  RH  011%=      5-min Rain = 0
KPG1 172233Z 20011KT 22/M10 A3003 RMK A01 T02181098  RH  011%=      5-min Rain = 0
KPG1 172234Z 21012KT 22/M10 A3003 RMK A01 T02181098  RH  011%=      5-min Rain = 0
KPG1 172235Z 22012KT 22/M10 A3003 RMK A01 T02171099  RH  011%=      5-min Rain = 0
KPG1 172236Z 23012KT 22/M10 A3003 RMK A01 T02171100  RH  011%=      5-min Rain = 0
KPG1 172237Z 23012KT 22/M10 A3003 RMK A01 T02161101  RH  011%=      5-min Rain = 0
KPG1 172238Z 22011KT 22/M10 A3004 RMK A01 T02161100  RH  011%=      5-min Rain = 0
KPG1 172239Z 22012KT 22/M10 A3003 RMK A01 T02161099  RH  011%=      5-min Rain = 0
KPG1 172240Z 22012KT 22/M10 A3004 RMK A01 T02171099  RH  011%=      5-min Rain = 0
KPG1 172241Z 22009KT 22/M10 A3004 RMK A01 T02171100  RH  011%=      5-min Rain = 0
KPG1 172242Z 21009KT 22/M10 A3004 RMK A01 T02161102  RH  011%=      5-min Rain = 0
KPG1 172243Z 20009KT 22/M10 A3003 RMK A01 T02151101  RH  011%=      5-min Rain = 0
KPG1 172244Z 21010KT 22/M10 A3003 RMK A01 T02161100  RH  011%=      5-min Rain = 0
KPG1 172245Z 20011KT 22/M10 A3003 RMK A01 T02171100  RH  011%=      5-min Rain = 0
KPG1 172246Z 21012KT 22/M10 A3003 RMK A01 T02171100  RH  011%=      5-min Rain = 0
KPG1 172247Z 21010KT 22/M10 A3003 RMK A01 T02171099  RH  011%=      5-min Rain = 0
KPG1 172248Z 23013KT 22/M10 A3003 RMK A01 T02181097  RH  011%=      5-min Rain = 0
KPG1 172249Z 22011KT 22/M10 A3003 RMK A01 T02181099  RH  011%=      5-min Rain = 0
KPG1 172250Z 20011KT 22/M10 A3003 RMK A01 T02181100  RH  011%=      5-min Rain = 0
KPG1 172251Z 21013KT 22/M10 A3003 RMK A01 T02181099  RH  011%=      5-min Rain = 0
KPG1 172252Z 22012KT 22/M10 A3003 RMK A01 T02171100  RH  011%=      5-min Rain = 0
KPG1 172253Z 22011KT 22/M10 A3003 RMK A01 T02161100  RH  011%=      5-min Rain = 0
KPG1 172254Z 22012KT 22/M10 A3003 RMK A01 T02161102  RH  011%=      5-min Rain = 0
KPG1 172255Z 22012KT 22/M10 A3003 RMK A01 T02161102  RH  011%=      5-min Rain = 0
KPG1 172256Z 22014KT 22/M10 A3003 RMK A01 T02161102  RH  011%=      5-min Rain = 0
KPG1 172257Z 23011KT 22/M10 A3003 RMK A01 T02161103  RH  011%=      5-min Rain = 0
KPG1 172258Z 22013KT 22/M10 A3003 RMK A01 T02161100  RH  011%=      5-min Rain = 0
KPG1 172259Z 21013KT 22/M10 A3003 RMK A01 T02161102  RH  011%=      5-min Rain = 0
KPG1 172300Z 21013KT 22/M10 A3003 RMK A01 T02151103  RH  011%=      5-min Rain = 0
KPG1 172301Z 21011KT 22/M10 A3003 RMK A01 T02151104  RH  011%=      5-min Rain = 0
KPG1 172302Z 21013KT 22/M10 A3003 RMK A01 T02151103  RH  011%=      5-min Rain = 0
KPG1 172303Z 22012KT 21/M10 A3003 RMK A01 T02141103  RH  011%=      5-min Rain = 0
KPG1 172304Z 21013KT 22/M10 A3003 RMK A01 T02151100  RH  011%=      5-min Rain = 0
KPG1 172305Z 21013KT 22/M10 A3003 RMK A01 T02151100  RH  011%=      5-min Rain = 0
KPG1 172306Z 21013KT 22/M10 A3003 RMK A01 T02151099  RH  011%=      5-min Rain = 0
KPG1 172307Z 21011KT 22/M10 A3003 RMK A01 T02151098  RH  011%=      5-min Rain = 0
KPG1 172308Z 21013KT 22/M10 A3003 RMK A01 T02161097  RH  011%=      5-min Rain = 0
KPG1 172309Z 22011KT 22/M10 A3003 RMK A01 T02151098  RH  011%=      5-min Rain = 0
KPG1 172310Z 21012KT 22/M10 A3003 RMK A01 T02151098  RH  011%=      5-min Rain = 0
KPG1 172311Z 21012KT 22/M10 A3003 RMK A01 T02151099  RH  011%=      5-min Rain = 0
KPG1 172312Z 21011KT 22/M10 A3003 RMK A01 T02151099  RH  011%=      5-min Rain = 0
KPG1 172313Z 21012KT 22/M10 A3003 RMK A01 T02151099  RH  011%=      5-min Rain = 0
KPG1 172314Z 20010KT 21/M10 A3003 RMK A01 T02141099  RH  011%=      5-min Rain = 0
KPG1 172315Z 20011KT 22/M10 A3003 RMK A01 T02151098  RH  011%=      5-min Rain = 0
KPG1 172316Z 21011KT 22/M10 A3003 RMK A01 T02151098  RH  011%=      5-min Rain = 0
KPG1 172317Z 20012KT 22/M10 A3003 RMK A01 T02151097  RH  011%=      5-min Rain = 0
KPG1 172318Z 20010KT 21/M10 A3003 RMK A01 T02141098  RH  011%=      5-min Rain = 0
KPG1 172319Z 20009KT 22/M10 A3003 RMK A01 T02151097  RH  012%=      5-min Rain = 0
KPG1 172320Z 21009KT 21/M10 A3003 RMK A01 T02141097  RH  011%=      5-min Rain = 0
KPG1 172321Z 21011KT 22/M10 A3003 RMK A01 T02151097  RH  011%=      5-min Rain = 0
KPG1 172322Z 21012KT 21/M10 A3003 RMK A01 T02141097  RH  012%=      5-min Rain = 0
KPG1 172323Z 21009KT 21/M10 A3003 RMK A01 T02141097  RH  012%=      5-min Rain = 0
KPG1 172324Z 20010KT 21/M10 A3003 RMK A01 T02141095  RH  012%=      5-min Rain = 0
KPG1 172325Z 21012KT 21/M10 A3003 RMK A01 T02131096  RH  012%=      5-min Rain = 0
KPG1 172326Z 21012KT 21/M10 A3003 RMK A01 T02131096  RH  012%=      5-min Rain = 0
KPG1 172327Z 21012KT 21/M10 A3003 RMK A01 T02121098  RH  012%=      5-min Rain = 0
KPG1 172328Z 21013KT 21/M10 A3003 RMK A01 T02121099  RH  012%=      5-min Rain = 0
KPG1 172329Z 21014KT 21/M10 A3003 RMK A01 T02111100  RH  011%=      5-min Rain = 0
KPG1 172330Z 21013KT 21/M10 A3003 RMK A01 T02111101  RH  011%=      5-min Rain = 0
KPG1 172331Z 21012KT 21/M10 A3003 RMK A01 T02111101  RH  011%=      5-min Rain = 0
KPG1 172332Z 21010KT 21/M10 A3003 RMK A01 T02111100  RH  011%=      5-min Rain = 0
KPG1 172333Z 21011KT 21/M10 A3003 RMK A01 T02101099  RH  012%=      5-min Rain = 0
KPG1 172334Z 21011KT 21/M10 A3003 RMK A01 T02111099  RH  012%=      5-min Rain = 0
KPG1 172335Z 21009KT 21/M10 A3003 RMK A01 T02111098  RH  012%=      5-min Rain = 0
KPG1 172336Z 21009KT 21/M10 A3003 RMK A01 T02111096  RH  012%=      5-min Rain = 0
KPG1 172337Z 21007KT 21/M10 A3003 RMK A01 T02111096  RH  012%=      5-min Rain = 0
KPG1 172338Z 22008KT 21/M09 A3003 RMK A01 T02101094  RH  012%=      5-min Rain = 0
KPG1 172339Z 22008KT 21/M10 A3003 RMK A01 T02101095  RH  012%=      5-min Rain = 0
KPG1 172340Z 21008KT 21/M10 A3003 RMK A01 T02101095  RH  012%=      5-min Rain = 0
KPG1 172341Z 22009KT 21/M10 A3003 RMK A01 T02091095  RH  012%=      5-min Rain = 0
KPG1 172342Z 22008KT 21/M10 A3003 RMK A01 T02091095  RH  012%=      5-min Rain = 0
KPG1 172343Z 21008KT 21/M10 A3003 RMK A01 T02081095  RH  012%=      5-min Rain = 0
KPG1 172344Z 21008KT 21/M10 A3003 RMK A01 T02081095  RH  012%=      5-min Rain = 0
KPG1 172345Z 21009KT 21/M10 A3003 RMK A01 T02081095  RH  012%=      5-min Rain = 0
KPG1 172346Z 22009KT 21/M10 A3003 RMK A01 T02071097  RH  012%=      5-min Rain = 0
KPG1 172347Z 22009KT 21/M10 A3003 RMK A01 T02071097  RH  012%=      5-min Rain = 0
KPG1 172348Z 22009KT 21/M10 A3003 RMK A01 T02061096  RH  012%=      5-min Rain = 0
KPG1 172349Z 22010KT 21/M10 A3003 RMK A01 T02061097  RH  012%=      5-min Rain = 0
KPG1 172350Z 22011KT 21/M10 A3003 RMK A01 T02051098  RH  012%=      5-min Rain = 0
KPG1 172351Z 22009KT 21/M10 A3003 RMK A01 T02051099  RH  012%=      5-min Rain = 0
KPG1 172352Z 22008KT 20/M10 A3003 RMK A01 T02041097  RH  012%=      5-min Rain = 0
KPG1 172353Z 22009KT 20/M09 A3003 RMK A01 T02041094  RH  013%=      5-min Rain = 0
KPG1 172354Z 22009KT 20/M10 A3003 RMK A01 T02031095  RH  013%=      5-min Rain = 0
KPG1 172355Z 22008KT 20/M10 A3003 RMK A01 T02021095  RH  013%=      5-min Rain = 0
KPG1 172356Z 22008KT 20/M09 A3003 RMK A01 T02021094  RH  013%=      5-min Rain = 0
KPG1 172357Z 22008KT 20/M09 A3003 RMK A01 T02011094  RH  013%=      5-min Rain = 0
KPG1 172358Z 21007KT 20/M09 A3003 RMK A01 T02001093  RH  013%=      5-min Rain = 0
KPG1 172359Z 21007KT 20/M09 A3003 RMK A01 T01991092  RH  013%=      5-min Rain = 0
KPG1 180000Z 21007KT 20/M09 A3003 RMK A01 T01981091  RH  013%=      5-min Rain = 0
KPG1 180001Z 21007KT 20/M09 A3003 RMK A01 T01971091  RH  013%=      5-min Rain = 0
KPG1 180002Z 22008KT 20/M09 A3003 RMK A01 T01961090  RH  014%=      5-min Rain = 0
KPG1 180003Z 21007KT 20/M09 A3003 RMK A01 T01951090  RH  014%=      5-min Rain = 0
KPG1 180004Z 22008KT 20/M09 A3003 RMK A01 T01951090  RH  014%=      5-min Rain = 0
KPG1 180005Z 22007KT 19/M09 A3003 RMK A01 T01941090  RH  014%=      5-min Rain = 0
KPG1 180006Z 22007KT 19/M09 A3003 RMK A01 T01931090  RH  014%=      5-min Rain = 0
KPG1 180007Z 22008KT 19/M09 A3003 RMK A01 T01921090  RH  014%=      5-min Rain = 0
KPG1 180008Z 22008KT 19/M09 A3003 RMK A01 T01901090  RH  014%=      5-min Rain = 0
KPG1 180009Z 22007KT 19/M09 A3003 RMK A01 T01901091  RH  014%=      5-min Rain = 0
KPG1 180010Z 22007KT 19/M09 A3003 RMK A01 T01891089  RH  014%=      5-min Rain = 0
KPG1 180011Z 22007KT 19/M09 A3003 RMK A01 T01871089  RH  014%=      5-min Rain = 0
KPG1 180012Z 22006KT 19/M09 A3003 RMK A01 T01861088  RH  015%=      5-min Rain = 0
KPG1 180013Z 22006KT 18/M09 A3003 RMK A01 T01841088  RH  015%=      5-min Rain = 0
KPG1 180014Z 22006KT 18/M09 A3003 RMK A01 T01821088  RH  015%=      5-min Rain = 0
KPG1 180015Z 22006KT 18/M09 A3003 RMK A01 T01811087  RH  015%=      5-min Rain = 0
KPG1 180016Z 22005KT 18/M09 A3003 RMK A01 T01791087  RH  016%=      5-min Rain = 0
KPG1 180017Z 23005KT 18/M09 A3003 RMK A01 T01771086  RH  016%=      5-min Rain = 0
KPG1 180018Z 23005KT 18/M09 A3003 RMK A01 T01751086  RH  016%=      5-min Rain = 0
KPG1 180019Z 23005KT 17/M09 A3003 RMK A01 T01741085  RH  016%=      5-min Rain = 0
KPG1 180020Z 23005KT 17/M09 A3003 RMK A01 T01721086  RH  016%=      5-min Rain = 0
KPG1 180021Z 23005KT 17/M09 A3003 RMK A01 T01711086  RH  016%=      5-min Rain = 0
KPG1 180022Z 23004KT 17/M09 A3003 RMK A01 T01701087  RH  016%=      5-min Rain = 0
KPG1 180023Z 23004KT 17/M09 A3003 RMK A01 T01701087  RH  016%=      5-min Rain = 0
KPG1 180024Z 23004KT 17/M09 A3003 RMK A01 T01701088  RH  016%=      5-min Rain = 0
KPG1 180025Z 23004KT 17/M09 A3003 RMK A01 T01711089  RH  016%=      5-min Rain = 0
KPG1 180026Z 23004KT 17/M09 A3003 RMK A01 T01711090  RH  016%=      5-min Rain = 0
KPG1 180027Z 22004KT 17/M09 A3003 RMK A01 T01731090  RH  016%=      5-min Rain = 0
KPG1 180028Z 22004KT 17/M09 A3003 RMK A01 T01731090  RH  016%=      5-min Rain = 0
KPG1 180029Z 22004KT 17/M09 A3003 RMK A01 T01731090  RH  016%=      5-min Rain = 0
KPG1 180030Z 22004KT 17/M09 A3003 RMK A01 T01731090  RH  016%=      5-min Rain = 0
KPG1 180031Z 23004KT 17/M09 A3004 RMK A01 T01731090  RH  016%=      5-min Rain = 0
KPG1 180032Z 23004KT 17/M09 A3004 RMK A01 T01731090  RH  016%=      5-min Rain = 0
KPG1 180033Z 23004KT 17/M09 A3004 RMK A01 T01721089  RH  016%=      5-min Rain = 0
KPG1 180034Z 23004KT 17/M09 A3004 RMK A01 T01711090  RH  016%=      5-min Rain = 0
KPG1 180035Z 23005KT 17/M09 A3004 RMK A01 T01701090  RH  016%=      5-min Rain = 0
KPG1 180036Z 23004KT 17/M09 A3004 RMK A01 T01691090  RH  016%=      5-min Rain = 0
KPG1 180037Z 24005KT 17/M09 A3004 RMK A01 T01681090  RH  016%=      5-min Rain = 0
KPG1 180038Z 23005KT 17/M09 A3004 RMK A01 T01681090  RH  016%=      5-min Rain = 0
KPG1 180039Z 23005KT 17/M09 A3004 RMK A01 T01681090  RH  016%=      5-min Rain = 0
KPG1 180040Z 23005KT 17/M09 A3004 RMK A01 T01671089  RH  016%=      5-min Rain = 0
KPG1 180041Z 23005KT 17/M09 A3004 RMK A01 T01671089  RH  016%=      5-min Rain = 0
KPG1 180042Z 24005KT 17/M09 A3004 RMK A01 T01671090  RH  016%=      5-min Rain = 0
KPG1 180043Z 25005KT 17/M09 A3004 RMK A01 T01661090  RH  016%=      5-min Rain = 0
KPG1 180044Z 25005KT 17/M09 A3004 RMK A01 T01651090  RH  017%=      5-min Rain = 0
KPG1 180045Z 25005KT 17/M09 A3004 RMK A01 T01651091  RH  016%=      5-min Rain = 0
KPG1 180046Z 25006KT 17/M09 A3004 RMK A01 T01651092  RH  016%=      5-min Rain = 0
KPG1 180047Z 25006KT 17/M09 A3004 RMK A01 T01661094  RH  016%=      5-min Rain = 0
KPG1 180048Z 24006KT 17/M09 A3004 RMK A01 T01681094  RH  016%=      5-min Rain = 0
KPG1 180049Z 25006KT 17/M09 A3004 RMK A01 T01701094  RH  016%=      5-min Rain = 0
KPG1 180050Z 25006KT 17/M09 A3004 RMK A01 T01691093  RH  016%=      5-min Rain = 0
KPG1 180051Z 25006KT 17/M09 A3004 RMK A01 T01681093  RH  016%=      5-min Rain = 0
KPG1 180052Z 24004KT 17/M09 A3004 RMK A01 T01681092  RH  016%=      5-min Rain = 0
KPG1 180053Z 18003KT 17/M09 A3004 RMK A01 T01651089  RH  017%=      5-min Rain = 0
KPG1 180054Z 22004KT 16/M09 A3004 RMK A01 T01621089  RH  017%=      5-min Rain = 0
KPG1 180055Z 23005KT 16/M09 A3004 RMK A01 T01631094  RH  016%=      5-min Rain = 0
KPG1 180056Z 22004KT 17/M10 A3004 RMK A01 T01691095  RH  015%=      5-min Rain = 0
KPG1 180057Z 21004KT 17/M10 A3004 RMK A01 T01721095  RH  015%=      5-min Rain = 0
KPG1 180058Z 22005KT 17/M09 A3004 RMK A01 T01721094  RH  015%=      5-min Rain = 0
KPG1 180059Z 22005KT 17/M09 A3004 RMK A01 T01711093  RH  016%=      5-min Rain = 0
KPG1 180100Z 21004KT 17/M09 A3004 RMK A01 T01681092  RH  016%=      5-min Rain = 0
KPG1 180101Z 22005KT 17/M09 A3004 RMK A01 T01661091  RH  016%=      5-min Rain = 0
KPG1 180102Z 22004KT 17/M09 A3004 RMK A01 T01651092  RH  016%=      5-min Rain = 0
KPG1 180103Z 21004KT 17/M09 A3004 RMK A01 T01661093  RH  016%=      5-min Rain = 0
KPG1 180104Z 21004KT 17/M09 A3005 RMK A01 T01671094  RH  016%=      5-min Rain = 0
KPG1 180105Z 20003KT 17/M09 A3005 RMK A01 T01691094  RH  016%=      5-min Rain = 0
KPG1 180106Z 20004KT 17/M09 A3005 RMK A01 T01701092  RH  016%=      5-min Rain = 0
KPG1 180107Z 19004KT 17/M09 A3005 RMK A01 T01711091  RH  016%=      5-min Rain = 0
KPG1 180108Z 18004KT 17/M09 A3005 RMK A01 T01681092  RH  016%=      5-min Rain = 0
KPG1 180109Z 18004KT 17/M09 A3005 RMK A01 T01671090  RH  016%=      5-min Rain = 0
KPG1 180110Z 17004KT 17/M09 A3005 RMK A01 T01651089  RH  017%=      5-min Rain = 0
KPG1 180111Z 18004KT 16/M09 A3005 RMK A01 T01641087  RH  017%=      5-min Rain = 0
KPG1 180112Z 17005KT 16/M09 A3005 RMK A01 T01631085  RH  017%=      5-min Rain = 0
KPG1 180113Z 17006KT 16/M08 A3005 RMK A01 T01611083  RH  018%=      5-min Rain = 0
KPG1 180114Z 17006KT 16/M08 A3005 RMK A01 T01601080  RH  018%=      5-min Rain = 0
KPG1 180115Z 17005KT 16/M08 A3005 RMK A01 T01581078  RH  019%=      5-min Rain = 0
KPG1 180116Z 16006KT 16/M08 A3005 RMK A01 T01561077  RH  019%=      5-min Rain = 0
KPG1 180117Z 16006KT 15/M08 A3005 RMK A01 T01541076  RH  020%=      5-min Rain = 0
KPG1 180118Z 16006KT 15/M08 A3005 RMK A01 T01521075  RH  020%=      5-min Rain = 0
KPG1 180119Z 16007KT 15/M07 A3005 RMK A01 T01501073  RH  021%=      5-min Rain = 0
KPG1 180120Z 15007KT 15/M07 A3005 RMK A01 T01491073  RH  021%=      5-min Rain = 0
KPG1 180121Z 15007KT 15/M07 A3005 RMK A01 T01481074  RH  021%=      5-min Rain = 0
KPG1 180122Z 15007KT 15/M07 A3005 RMK A01 T01481074  RH  021%=      5-min Rain = 0
KPG1 180123Z 16007KT 15/M08 A3005 RMK A01 T01481075  RH  021%=      5-min Rain = 0
KPG1 180124Z 16006KT 15/M07 A3005 RMK A01 T01491074  RH  021%=      5-min Rain = 0
KPG1 180125Z 15006KT 15/M08 A3005 RMK A01 T01491075  RH  021%=      5-min Rain = 0
KPG1 180126Z 16005KT 15/M08 A3005 RMK A01 T01501076  RH  020%=      5-min Rain = 0
KPG1 180127Z 16006KT 15/M08 A3005 RMK A01 T01501076  RH  020%=      5-min Rain = 0
KPG1 180128Z 17005KT 15/M08 A3005 RMK A01 T01511076  RH  020%=      5-min Rain = 0
KPG1 180129Z 17005KT 15/M08 A3005 RMK A01 T01511075  RH  020%=      5-min Rain = 0
KPG1 180130Z 16005KT 15/M07 A3005 RMK A01 T01501074  RH  021%=      5-min Rain = 0
KPG1 180131Z 16004KT 15/M08 A3005 RMK A01 T01491075  RH  021%=      5-min Rain = 0
KPG1 180132Z 17003KT 15/M08 A3005 RMK A01 T01491075  RH  021%=      5-min Rain = 0
KPG1 180133Z 18004KT 15/M07 A3005 RMK A01 T01481074  RH  021%=      5-min Rain = 0
KPG1 180134Z 18006KT 15/M08 A3005 RMK A01 T01481075  RH  021%=      5-min Rain = 0
KPG1 180135Z 18004KT 15/M08 A3005 RMK A01 T01491075  RH  021%=      5-min Rain = 0
KPG1 180136Z 17003KT 15/M08 A3005 RMK A01 T01501075  RH  020%=      5-min Rain = 0
KPG1 180137Z 18003KT 15/M08 A3005 RMK A01 T01501075  RH  020%=      5-min Rain = 0
KPG1 180138Z 19002KT 15/M08 A3005 RMK A01 T01501076  RH  020%=      5-min Rain = 0
KPG1 180139Z 18004KT 15/M08 A3005 RMK A01 T01501076  RH  020%=      5-min Rain = 0
KPG1 180140Z 17003KT 15/M08 A3005 RMK A01 T01511075  RH  020%=      5-min Rain = 0
KPG1 180141Z 15005KT 15/M08 A3005 RMK A01 T01511075  RH  020%=      5-min Rain = 0
KPG1 180142Z 15005KT 15/M08 A3005 RMK A01 T01511075  RH  020%=      5-min Rain = 0
KPG1 180143Z 14005KT 15/M08 A3005 RMK A01 T01521075  RH  020%=      5-min Rain = 0
KPG1 180144Z 15004KT 15/M07 A3005 RMK A01 T01521074  RH  020%=      5-min Rain = 0
KPG1 180145Z 17003KT 15/M07 A3005 RMK A01 T01521074  RH  020%=      5-min Rain = 0
KPG1 180146Z 16003KT 15/M07 A3005 RMK A01 T01511074  RH  020%=      5-min Rain = 0
KPG1 180147Z 20004KT 15/M07 A3005 RMK A01 T01511073  RH  021%=      5-min Rain = 0
KPG1 180148Z 22003KT 15/M07 A3005 RMK A01 T01511074  RH  020%=      5-min Rain = 0
KPG1 180149Z 22003KT 15/M07 A3005 RMK A01 T01501074  RH  021%=      5-min Rain = 0
KPG1 180150Z 22003KT 15/M07 A3005 RMK A01 T01491074  RH  021%=      5-min Rain = 0
KPG1 180151Z 22003KT 15/M07 A3005 RMK A01 T01491074  RH  021%=      5-min Rain = 0
KPG1 180152Z 22004KT 15/M07 A3005 RMK A01 T01491074  RH  021%=      5-min Rain = 0
KPG1 180153Z 21004KT 15/M07 A3005 RMK A01 T01491074  RH  021%=      5-min Rain = 0
KPG1 180154Z 19004KT 15/M07 A3005 RMK A01 T01491073  RH  021%=      5-min Rain = 0
KPG1 180155Z 19004KT 15/M07 A3005 RMK A01 T01481073  RH  021%=      5-min Rain = 0
KPG1 180156Z 20004KT 15/M07 A3005 RMK A01 T01471073  RH  021%=      5-min Rain = 0
KPG1 180157Z 21004KT 15/M07 A3005 RMK A01 T01471072  RH  021%=      5-min Rain = 0
KPG1 180158Z 20004KT 15/M07 A3005 RMK A01 T01451073  RH  021%=      5-min Rain = 0
KPG1 180159Z 21004KT 15/M07 A3005 RMK A01 T01451074  RH  021%=      5-min Rain = 0
KPG1 180200Z 22003KT 15/M07 A3005 RMK A01 T01461074  RH  021%=      5-min Rain = 0
KPG1 180201Z 20004KT 15/M07 A3005 RMK A01 T01461073  RH  021%=      5-min Rain = 0
KPG1 180202Z 20004KT 15/M07 A3005 RMK A01 T01461073  RH  021%=      5-min Rain = 0
KPG1 180203Z 20004KT 15/M07 A3005 RMK A01 T01461074  RH  021%=      5-min Rain = 0
KPG1 180204Z 20003KT 15/M07 A3005 RMK A01 T01471074  RH  021%=      5-min Rain = 0
KPG1 180205Z 21004KT 15/M07 A3005 RMK A01 T01461073  RH  021%=      5-min Rain = 0
KPG1 180206Z 20004KT 15/M07 A3005 RMK A01 T01451073  RH  022%=      5-min Rain = 0
KPG1 180207Z 20003KT 14/M07 A3005 RMK A01 T01431072  RH  022%=      5-min Rain = 0
KPG1 180208Z 21004KT 14/M07 A3005 RMK A01 T01421073  RH  022%=      5-min Rain = 0
KPG1 180209Z 20004KT 14/M07 A3005 RMK A01 T01421073  RH  022%=      5-min Rain = 0
KPG1 180210Z 19004KT 14/M07 A3005 RMK A01 T01411073  RH  022%=      5-min Rain = 0
KPG1 180211Z 18004KT 14/M07 A3005 RMK A01 T01421074  RH  022%=      5-min Rain = 0
KPG1 180212Z 19004KT 14/M07 A3005 RMK A01 T01431073  RH  022%=      5-min Rain = 0
KPG1 180213Z 18004KT 14/M07 A3005 RMK A01 T01431072  RH  022%=      5-min Rain = 0
KPG1 180214Z 19004KT 14/M07 A3005 RMK A01 T01411072  RH  022%=      5-min Rain = 0
KPG1 180215Z 19004KT 14/M07 A3005 RMK A01 T01401073  RH  022%=      5-min Rain = 0
KPG1 180216Z 19003KT 14/M07 A3005 RMK A01 T01401072  RH  022%=      5-min Rain = 0
KPG1 180217Z 19003KT 14/M07 A3005 RMK A01 T01401072  RH  022%=      5-min Rain = 0
KPG1 180218Z 18003KT 14/M07 A3005 RMK A01 T01391072  RH  022%=      5-min Rain = 0
KPG1 180219Z 18003KT 14/M07 A3005 RMK A01 T01381072  RH  023%=      5-min Rain = 0
KPG1 180220Z 21002KT 14/M07 A3005 RMK A01 T01371072  RH  023%=      5-min Rain = 0
KPG1 180221Z 19003KT 14/M07 A3005 RMK A01 T01371072  RH  023%=      5-min Rain = 0
KPG1 180222Z 19003KT 14/M07 A3005 RMK A01 T01371072  RH  023%=      5-min Rain = 0
KPG1 180223Z 19003KT 14/M07 A3005 RMK A01 T01381072  RH  023%=      5-min Rain = 0
KPG1 180224Z 18003KT 14/M07 A3005 RMK A01 T01381072  RH  023%=      5-min Rain = 0
KPG1 180225Z 19003KT 14/M07 A3005 RMK A01 T01381073  RH  022%=      5-min Rain = 0
KPG1 180226Z 19003KT 14/M07 A3005 RMK A01 T01381073  RH  022%=      5-min Rain = 0
KPG1 180227Z 20003KT 14/M07 A3005 RMK A01 T01391073  RH  022%=      5-min Rain = 0
KPG1 180228Z 21003KT 14/M07 A3005 RMK A01 T01411073  RH  022%=      5-min Rain = 0
KPG1 180229Z 21003KT 14/M07 A3005 RMK A01 T01421074  RH  022%=      5-min Rain = 0
KPG1 180230Z 21004KT 14/M07 A3005 RMK A01 T01421073  RH  022%=      5-min Rain = 0
KPG1 180231Z 21003KT 14/M07 A3005 RMK A01 T01421073  RH  022%=      5-min Rain = 0
KPG1 180232Z 19004KT 14/M07 A3005 RMK A01 T01421073  RH  022%=      5-min Rain = 0
KPG1 180233Z 19004KT 14/M07 A3005 RMK A01 T01421074  RH  022%=      5-min Rain = 0
KPG1 180234Z 21004KT 14/M07 A3005 RMK A01 T01421073  RH  022%=      5-min Rain = 0
KPG1 180235Z 21004KT 14/M07 A3005 RMK A01 T01401073  RH  022%=      5-min Rain = 0
KPG1 180236Z 22003KT 14/M07 A3005 RMK A01 T01391073  RH  022%=      5-min Rain = 0
KPG1 180237Z 21003KT 14/M07 A3005 RMK A01 T01391073  RH  022%=      5-min Rain = 0
KPG1 180238Z 22003KT 14/M07 A3005 RMK A01 T01391073  RH  022%=      5-min Rain = 0
KPG1 180239Z 22003KT 14/M07 A3005 RMK A01 T01391073  RH  022%=      5-min Rain = 0
KPG1 180240Z 24004KT 14/M07 A3005 RMK A01 T01381073  RH  022%=      5-min Rain = 0
KPG1 180241Z 22003KT 14/M07 A3005 RMK A01 T01371073  RH  023%=      5-min Rain = 0
KPG1 180242Z 23002KT 14/M07 A3005 RMK A01 T01371074  RH  022%=      5-min Rain = 0
KPG1 180243Z 22002KT 14/M07 A3005 RMK A01 T01381074  RH  022%=      5-min Rain = 0
KPG1 180244Z 23003KT 14/M07 A3005 RMK A01 T01381074  RH  022%=      5-min Rain = 0
KPG1 180245Z 23003KT 14/M07 A3005 RMK A01 T01391073  RH  022%=      5-min Rain = 0
KPG1 180246Z 25003KT 14/M07 A3005 RMK A01 T01391074  RH  022%=      5-min Rain = 0
KPG1 180247Z 25003KT 14/M07 A3005 RMK A01 T01391073  RH  022%=      5-min Rain = 0
KPG1 180248Z 26003KT 14/M07 A3005 RMK A01 T01381073  RH  023%=      5-min Rain = 0
KPG1 180249Z 25003KT 14/M07 A3005 RMK A01 T01361073  RH  023%=      5-min Rain = 0
KPG1 180250Z 25003KT 14/M07 A3005 RMK A01 T01361074  RH  023%=      5-min Rain = 0
KPG1 180251Z 25002KT 14/M07 A3005 RMK A01 T01381073  RH  022%=      5-min Rain = 0
KPG1 180252Z 25003KT 14/M07 A3005 RMK A01 T01381072  RH  023%=      5-min Rain = 0
KPG1 180253Z 24002KT 14/M07 A3005 RMK A01 T01361073  RH  023%=      5-min Rain = 0
KPG1 180254Z 25002KT 14/M07 A3006 RMK A01 T01361073  RH  023%=      5-min Rain = 0
KPG1 180255Z 26003KT 14/M07 A3006 RMK A01 T01361073  RH  023%=      5-min Rain = 0
KPG1 180256Z 25002KT 14/M07 A3006 RMK A01 T01361074  RH  023%=      5-min Rain = 0
KPG1 180257Z 26002KT 14/M07 A3006 RMK A01 T01371074  RH  023%=      5-min Rain = 0
KPG1 180258Z 25002KT 14/M07 A3006 RMK A01 T01371073  RH  022%=      5-min Rain = 0
KPG1 180259Z 26001KT 14/M08 A3006 RMK A01 T01371075  RH  022%=      5-min Rain = 0
KPG1 180300Z 27001KT 14/M07 A3006 RMK A01 T01381073  RH  022%=      5-min Rain = 0
KPG1 180301Z 26001KT 13/M07 A3006 RMK A01 T01341072  RH  023%=      5-min Rain = 0
KPG1 180302Z 28000KT 13/M07 A3006 RMK A01 T01281073  RH  024%=      5-min Rain = 0
KPG1 180303Z 00000KT 13/M07 A3006 RMK A01 T01251073  RH  025%=      5-min Rain = 0
KPG1 180304Z 05001KT 12/M07 A3006 RMK A01 T01201072  RH  025%=      5-min Rain = 0
KPG1 180305Z 04003KT 12/M07 A3006 RMK A01 T01161071  RH  027%=      5-min Rain = 0
KPG1 180306Z 04003KT 11/M07 A3006 RMK A01 T01121069  RH  027%=      5-min Rain = 0
KPG1 180307Z 03003KT 11/M07 A3006 RMK A01 T01081070  RH  028%=      5-min Rain = 0
KPG1 180308Z 03003KT 11/M07 A3006 RMK A01 T01091070  RH  028%=      5-min Rain = 0
KPG1 180309Z 03003KT 11/M07 A3006 RMK A01 T01101069  RH  028%=      5-min Rain = 0
KPG1 180310Z 04003KT 11/M07 A3006 RMK A01 T01071068  RH  029%=      5-min Rain = 0
KPG1 180311Z 04003KT 10/M07 A3006 RMK A01 T01041068  RH  029%=      5-min Rain = 0
KPG1 180312Z 03003KT 10/M07 A3006 RMK A01 T01031069  RH  029%=      5-min Rain = 0
KPG1 180313Z 02003KT 10/M07 A3006 RMK A01 T01041070  RH  029%=      5-min Rain = 0
KPG1 180314Z 02003KT 11/M07 A3006 RMK A01 T01051069  RH  029%=      5-min Rain = 0
KPG1 180315Z 02003KT 10/M07 A3006 RMK A01 T01041069  RH  029%=      5-min Rain = 0
KPG1 180316Z 02003KT 11/M07 A3006 RMK A01 T01051071  RH  028%=      5-min Rain = 0
KPG1 180317Z 02002KT 11/M07 A3006 RMK A01 T01101071  RH  027%=      5-min Rain = 0
KPG1 180318Z 02002KT 11/M07 A3006 RMK A01 T01131072  RH  027%=      5-min Rain = 0
KPG1 180319Z 02002KT 11/M07 A3006 RMK A01 T01141072  RH  026%=      5-min Rain = 0
KPG1 180320Z 02002KT 11/M07 A3006 RMK A01 T01141072  RH  026%=      5-min Rain = 0
KPG1 180321Z 02002KT 11/M07 A3006 RMK A01 T01101070  RH  028%=      5-min Rain = 0
KPG1 180322Z 02002KT 11/M07 A3006 RMK A01 T01061071  RH  028%=      5-min Rain = 0
KPG1 180323Z 03002KT 11/M07 A3006 RMK A01 T01061073  RH  028%=      5-min Rain = 0
KPG1 180324Z 04002KT 11/M07 A3006 RMK A01 T01061072  RH  028%=      5-min Rain = 0
KPG1 180325Z 05002KT 11/M07 A3006 RMK A01 T01081071  RH  028%=      5-min Rain = 0
KPG1 180326Z 04002KT 11/M07 A3006 RMK A01 T01081072  RH  027%=      5-min Rain = 0
KPG1 180327Z 04002KT 11/M07 A3006 RMK A01 T01101072  RH  027%=      5-min Rain = 0
KPG1 180328Z 04002KT 11/M07 A3006 RMK A01 T01091072  RH  027%=      5-min Rain = 0
KPG1 180329Z 04002KT 11/M07 A3006 RMK A01 T01071072  RH  028%=      5-min Rain = 0
KPG1 180330Z 06002KT 11/M07 A3006 RMK A01 T01051072  RH  028%=      5-min Rain = 0
KPG1 180331Z 07002KT 11/M08 A3006 RMK A01 T01051075  RH  028%=      5-min Rain = 0
KPG1 180332Z 10002KT 11/M08 A3006 RMK A01 T01081075  RH  027%=      5-min Rain = 0
KPG1 180333Z 07002KT 11/M08 A3006 RMK A01 T01091075  RH  027%=      5-min Rain = 0
KPG1 180334Z 07001KT 11/M08 A3006 RMK A01 T01091076  RH  027%=      5-min Rain = 0
KPG1 180335Z 08000KT 11/M08 A3006 RMK A01 T01101078  RH  026%=      5-min Rain = 0
KPG1 180336Z 00000KT 11/M08 A3006 RMK A01 T01121078  RH  026%=      5-min Rain = 0
KPG1 180337Z 00000KT 11/M08 A3006 RMK A01 T01121078  RH  026%=      5-min Rain = 0
KPG1 180338Z 33000KT 11/M08 A3006 RMK A01 T01131080  RH  025%=      5-min Rain = 0
KPG1 180339Z 32001KT 12/M08 A3006 RMK A01 T01171082  RH  024%=      5-min Rain = 0
KPG1 180340Z 32000KT 12/M08 A3006 RMK A01 T01221083  RH  023%=      5-min Rain = 0
KPG1 180341Z 32000KT 13/M08 A3006 RMK A01 T01261083  RH  022%=      5-min Rain = 0
KPG1 180342Z 30001KT 13/M08 A3006 RMK A01 T01281083  RH  022%=      5-min Rain = 0
KPG1 180343Z 29001KT 13/M08 A3006 RMK A01 T01291082  RH  022%=      5-min Rain = 0
KPG1 180344Z 29001KT 12/M08 A3006 RMK A01 T01231076  RH  024%=      5-min Rain = 0
KPG1 180345Z 29000KT 11/M08 A3006 RMK A01 T01101077  RH  026%=      5-min Rain = 0
KPG1 180346Z 00000KT 10/M08 A3006 RMK A01 T01031078  RH  027%=      5-min Rain = 0
KPG1 180347Z 00000KT 10/M08 A3006 RMK A01 T00991076  RH  028%=      5-min Rain = 0
KPG1 180348Z 00000KT 10/M08 A3006 RMK A01 T00981077  RH  028%=      5-min Rain = 0
KPG1 180349Z 03001KT 10/M08 A3006 RMK A01 T00991077  RH  028%=      5-min Rain = 0
KPG1 180350Z 03001KT 10/M08 A3006 RMK A01 T01021078  RH  027%=      5-min Rain = 0
KPG1 180351Z 04001KT 10/M08 A3006 RMK A01 T01031079  RH  027%=      5-min Rain = 0
KPG1 180352Z 05001KT 10/M08 A3006 RMK A01 T01031079  RH  027%=      5-min Rain = 0
KPG1 180353Z 07002KT 10/M08 A3006 RMK A01 T01021079  RH  027%=      5-min Rain = 0
KPG1 180354Z 08001KT 10/M08 A3006 RMK A01 T01011080  RH  027%=      5-min Rain = 0
KPG1 180355Z 08001KT 10/M08 A3006 RMK A01 T01031080  RH  027%=      5-min Rain = 0
KPG1 180356Z 08001KT 10/M08 A3006 RMK A01 T01031077  RH  027%=      5-min Rain = 0
KPG1 180357Z 07001KT 10/M08 A3006 RMK A01 T01031079  RH  027%=      5-min Rain = 0
KPG1 180358Z 12001KT 10/M08 A3006 RMK A01 T01031080  RH  027%=      5-min Rain = 0
KPG1 180359Z 18000KT 11/M08 A3006 RMK A01 T01051083  RH  026%=      5-min Rain = 0
KPG1 180400Z 20001KT 11/M08 A3006 RMK A01 T01101083  RH  025%=      5-min Rain = 0
KPG1 180401Z 21000KT 11/M08 A3006 RMK A01 T01131082  RH  025%=      5-min Rain = 0
KPG1 180402Z 24001KT 12/M08 A3006 RMK A01 T01151083  RH  024%=      5-min Rain = 0
KPG1 180403Z 27001KT 12/M08 A3006 RMK A01 T01191082  RH  024%=      5-min Rain = 0
KPG1 180404Z 27001KT 12/M08 A3006 RMK A01 T01221081  RH  023%=      5-min Rain = 0
KPG1 180405Z 29002KT 13/M08 A3006 RMK A01 T01251081  RH  023%=      5-min Rain = 0
KPG1 180406Z 29002KT 13/M08 A3006 RMK A01 T01261079  RH  023%=      5-min Rain = 0
KPG1 180407Z 30001KT 12/M08 A3006 RMK A01 T01221076  RH  024%=      5-min Rain = 0
KPG1 180408Z 00001KT 11/M08 A3006 RMK A01 T01091078  RH  026%=      5-min Rain = 0
KPG1 180409Z 01001KT 11/M08 A3006 RMK A01 T01051080  RH  026%=      5-min Rain = 0
KPG1 180410Z 02001KT 11/M08 A3006 RMK A01 T01061078  RH  027%=      5-min Rain = 0
KPG1 180411Z 02001KT 11/M08 A3006 RMK A01 T01051076  RH  027%=      5-min Rain = 0
KPG1 180412Z 03001KT 10/M08 A3006 RMK A01 T01011079  RH  027%=      5-min Rain = 0
KPG1 180413Z 05002KT 10/M08 A3006 RMK A01 T00971080  RH  028%=      5-min Rain = 0
KPG1 180414Z 05002KT 10/M08 A3006 RMK A01 T00951080  RH  028%=      5-min Rain = 0
KPG1 180415Z 06002KT 10/M08 A3006 RMK A01 T00951080  RH  028%=      5-min Rain = 0
KPG1 180416Z 07002KT 10/M08 A3006 RMK A01 T00961080  RH  028%=      5-min Rain = 0
KPG1 180417Z 07002KT 10/M08 A3006 RMK A01 T00971079  RH  028%=      5-min Rain = 0
KPG1 180418Z 06002KT 10/M08 A3006 RMK A01 T00961078  RH  029%=      5-min Rain = 0
KPG1 180419Z 06002KT 10/M08 A3006 RMK A01 T00951078  RH  029%=      5-min Rain = 0
KPG1 180420Z 06001KT 10/M08 A3006 RMK A01 T00951079  RH  029%=      5-min Rain = 0
KPG1 180421Z 03002KT 10/M08 A3006 RMK A01 T00971079  RH  028%=      5-min Rain = 0
KPG1 180422Z 03003KT 10/M08 A3006 RMK A01 T01001078  RH  028%=      5-min Rain = 0
KPG1 180423Z 03003KT 10/M08 A3006 RMK A01 T01021078  RH  027%=      5-min Rain = 0
KPG1 180424Z 03004KT 10/M08 A3006 RMK A01 T01041079  RH  027%=      5-min Rain = 0
KPG1 180425Z 02004KT 11/M08 A3006 RMK A01 T01071080  RH  026%=      5-min Rain = 0
KPG1 180426Z 02003KT 11/M08 A3006 RMK A01 T01111081  RH  025%=      5-min Rain = 0
KPG1 180427Z 00002KT 12/M08 A3006 RMK A01 T01151080  RH  025%=      5-min Rain = 0
KPG1 180428Z 34003KT 12/M08 A3006 RMK A01 T01171081  RH  024%=      5-min Rain = 0
KPG1 180429Z 34004KT 12/M08 A3006 RMK A01 T01191082  RH  024%=      5-min Rain = 0
KPG1 180430Z 36004KT 12/M08 A3006 RMK A01 T01201081  RH  024%=      5-min Rain = 0
KPG1 180431Z 35005KT 11/M08 A3006 RMK A01 T01141078  RH  025%=      5-min Rain = 0
KPG1 180432Z 36004KT 11/M08 A3006 RMK A01 T01111082  RH  025%=      5-min Rain = 0
KPG1 180433Z 36005KT 11/M08 A3006 RMK A01 T01141081  RH  025%=      5-min Rain = 0
KPG1 180434Z 01003KT 11/M08 A3006 RMK A01 T01131080  RH  025%=      5-min Rain = 0
KPG1 180435Z 04002KT 11/M08 A3006 RMK A01 T01111083  RH  025%=      5-min Rain = 0
KPG1 180436Z 02002KT 11/M08 A3006 RMK A01 T01131084  RH  024%=      5-min Rain = 0
KPG1 180437Z 03002KT 11/M08 A3006 RMK A01 T01131084  RH  024%=      5-min Rain = 0
KPG1 180438Z 03002KT 11/M09 A3006 RMK A01 T01141085  RH  024%=      5-min Rain = 0
KPG1 180439Z 05001KT 12/M09 A3007 RMK A01 T01171086  RH  023%=      5-min Rain = 0
KPG1 180440Z 05001KT 12/M09 A3007 RMK A01 T01201085  RH  023%=      5-min Rain = 0
KPG1 180441Z 01002KT 12/M09 A3007 RMK A01 T01211085  RH  023%=      5-min Rain = 0
KPG1 180442Z 01004KT 12/M09 A3007 RMK A01 T01211085  RH  023%=      5-min Rain = 0
KPG1 180443Z 01005KT 12/M08 A3007 RMK A01 T01221084  RH  023%=      5-min Rain = 0
KPG1 180444Z 01005KT 12/M08 A3007 RMK A01 T01221083  RH  023%=      5-min Rain = 0
KPG1 180445Z 00006KT 12/M08 A3007 RMK A01 T01231081  RH  023%=      5-min Rain = 0
KPG1 180446Z 00006KT 12/M08 A3007 RMK A01 T01221079  RH  024%=      5-min Rain = 0
KPG1 180447Z 35007KT 12/M08 A3007 RMK A01 T01221077  RH  024%=      5-min Rain = 0
KPG1 180448Z 35007KT 12/M08 A3007 RMK A01 T01201076  RH  025%=      5-min Rain = 0
KPG1 180449Z 35008KT 12/M08 A3007 RMK A01 T01171075  RH  025%=      5-min Rain = 0
KPG1 180450Z 36007KT 12/M08 A3007 RMK A01 T01171075  RH  025%=      5-min Rain = 0
KPG1 180451Z 01007KT 12/M07 A3007 RMK A01 T01161074  RH  026%=      5-min Rain = 0
KPG1 180452Z 00007KT 12/M07 A3007 RMK A01 T01161074  RH  026%=      5-min Rain = 0
KPG1 180453Z 00006KT 12/M07 A3007 RMK A01 T01161074  RH  026%=      5-min Rain = 0
KPG1 180454Z 00007KT 12/M07 A3007 RMK A01 T01161074  RH  026%=      5-min Rain = 0
KPG1 180455Z 00007KT 12/M07 A3007 RMK A01 T01161074  RH  026%=      5-min Rain = 0
KPG1 180456Z 36008KT 12/M07 A3007 RMK A01 T01181073  RH  026%=      5-min Rain = 0
KPG1 180457Z 01008KT 12/M07 A3007 RMK A01 T01211073  RH  025%=      5-min Rain = 0
KPG1 180458Z 35008KT 12/M07 A3007 RMK A01 T01221074  RH  025%=      5-min Rain = 0
KPG1 180459Z 36007KT 12/M07 A3007 RMK A01 T01211073  RH  025%=      5-min Rain = 0
KPG1 180500Z 36008KT 12/M07 A3007 RMK A01 T01201073  RH  025%=      5-min Rain = 0
KPG1 180501Z 02007KT 12/M07 A3007 RMK A01 T01211073  RH  025%=      5-min Rain = 0
KPG1 180502Z 01006KT 12/M07 A3007 RMK A01 T01211073  RH  025%=      5-min Rain = 0
KPG1 180503Z 04006KT 12/M07 A3007 RMK A01 T01191071  RH  026%=      5-min Rain = 0
KPG1 180504Z 02007KT 12/M07 A3007 RMK A01 T01171072  RH  026%=      5-min Rain = 0
KPG1 180505Z 05007KT 12/M07 A3007 RMK A01 T01171071  RH  026%=      5-min Rain = 0
KPG1 180506Z 04007KT 12/M07 A3007 RMK A01 T01171069  RH  027%=      5-min Rain = 0
KPG1 180507Z 05007KT 12/M07 A3007 RMK A01 T01181068  RH  027%=      5-min Rain = 0
KPG1 180508Z 04008KT 12/M07 A3007 RMK A01 T01171067  RH  027%=      5-min Rain = 0
KPG1 180509Z 03006KT 12/M07 A3007 RMK A01 T01171066  RH  027%=      5-min Rain = 0
KPG1 180510Z 04007KT 12/M07 A3007 RMK A01 T01161065  RH  028%=      5-min Rain = 0
KPG1 180511Z 04007KT 12/M06 A3006 RMK A01 T01151063  RH  028%=      5-min Rain = 0
KPG1 180512Z 01009KT 11/M06 A3006 RMK A01 T01141062  RH  029%=      5-min Rain = 0
KPG1 180513Z 02009KT 12/M06 A3006 RMK A01 T01151061  RH  029%=      5-min Rain = 0
KPG1 180514Z 01009KT 12/M06 A3006 RMK A01 T01161060  RH  029%=      5-min Rain = 0
KPG1 180515Z 02008KT 12/M06 A3006 RMK A01 T01151060  RH  029%=      5-min Rain = 0
KPG1 180516Z 01009KT 12/M06 A3006 RMK A01 T01161059  RH  029%=      5-min Rain = 0
KPG1 180517Z 01009KT 12/M06 A3006 RMK A01 T01151059  RH  029%=      5-min Rain = 0
KPG1 180518Z 01010KT 12/M06 A3006 RMK A01 T01151058  RH  029%=      5-min Rain = 0
KPG1 180519Z 00010KT 12/M06 A3006 RMK A01 T01151058  RH  029%=      5-min Rain = 0
KPG1 180520Z 35011KT 12/M06 A3006 RMK A01 T01161059  RH  029%=      5-min Rain = 0
KPG1 180521Z 00011KT 12/M06 A3006 RMK A01 T01171059  RH  029%=      5-min Rain = 0
KPG1 180522Z 00010KT 12/M06 A3006 RMK A01 T01171058  RH  029%=      5-min Rain = 0
KPG1 180523Z 00010KT 12/M06 A3006 RMK A01 T01171058  RH  029%=      5-min Rain = 0
KPG1 180524Z 36010KT 12/M06 A3006 RMK A01 T01171058  RH  029%=      5-min Rain = 0
KPG1 180525Z 36010KT 12/M06 A3006 RMK A01 T01171058  RH  029%=      5-min Rain = 0
KPG1 180526Z 36010KT 12/M06 A3006 RMK A01 T01171058  RH  029%=      5-min Rain = 0
KPG1 180527Z 36011KT 12/M06 A3006 RMK A01 T01161057  RH  029%=      5-min Rain = 0
KPG1 180528Z 36011KT 12/M06 A3006 RMK A01 T01151057  RH  029%=      5-min Rain = 0
KPG1 180529Z 01011KT 12/M06 A3006 RMK A01 T01181056  RH  029%=      5-min Rain = 0
KPG1 180530Z 01010KT 12/M06 A3006 RMK A01 T01201056  RH  029%=      5-min Rain = 0
KPG1 180531Z 00010KT 12/M06 A3006 RMK A01 T01211056  RH  029%=      5-min Rain = 0
KPG1 180532Z 00011KT 12/M06 A3006 RMK A01 T01201056  RH  029%=      5-min Rain = 0
KPG1 180533Z 36011KT 12/M06 A3006 RMK A01 T01201056  RH  029%=      5-min Rain = 0
KPG1 180534Z 00011KT 12/M06 A3006 RMK A01 T01191056  RH  029%=      5-min Rain = 0
KPG1 180535Z 36011KT 12/M06 A3006 RMK A01 T01191056  RH  029%=      5-min Rain = 0
KPG1 180536Z 00011KT 12/M06 A3006 RMK A01 T01191056  RH  029%=      5-min Rain = 0
KPG1 180537Z 00010KT 12/M06 A3006 RMK A01 T01191056  RH  029%=      5-min Rain = 0
KPG1 180538Z 01010KT 12/M06 A3006 RMK A01 T01181056  RH  029%=      5-min Rain = 0
KPG1 180539Z 00010KT 12/M06 A3006 RMK A01 T01171056  RH  029%=      5-min Rain = 0
KPG1 180540Z 00011KT 12/M06 A3006 RMK A01 T01161055  RH  030%=      5-min Rain = 0
KPG1 180541Z 01011KT 12/M06 A3006 RMK A01 T01161055  RH  030%=      5-min Rain = 0
KPG1 180542Z 01010KT 12/M06 A3006 RMK A01 T01161055  RH  030%=      5-min Rain = 0
KPG1 180543Z 01010KT 12/M05 A3006 RMK A01 T01161054  RH  030%=      5-min Rain = 0
KPG1 180544Z 01010KT 12/M05 A3006 RMK A01 T01161054  RH  030%=      5-min Rain = 0
KPG1 180545Z 01010KT 12/M05 A3006 RMK A01 T01161054  RH  030%=      5-min Rain = 0
KPG1 180546Z 00010KT 12/M05 A3006 RMK A01 T01161053  RH  030%=      5-min Rain = 0
KPG1 180547Z 01010KT 12/M05 A3006 RMK A01 T01171053  RH  030%=      5-min Rain = 0
KPG1 180548Z 00011KT 12/M05 A3006 RMK A01 T01171053  RH  030%=      5-min Rain = 0
KPG1 180549Z 00011KT 12/M05 A3006 RMK A01 T01171053  RH  030%=      5-min Rain = 0
KPG1 180550Z 00010KT 12/M05 A3006 RMK A01 T01171053  RH  030%=      5-min Rain = 0
KPG1 180551Z 00010KT 12/M05 A3006 RMK A01 T01171053  RH  030%=      5-min Rain = 0
KPG1 180552Z 00011KT 12/M05 A3006 RMK A01 T01161053  RH  030%=      5-min Rain = 0
KPG1 180553Z 00011KT 11/M05 A3006 RMK A01 T01141054  RH  030%=      5-min Rain = 0
KPG1 180554Z 00011KT 11/M05 A3006 RMK A01 T01141053  RH  031%=      5-min Rain = 0
KPG1 180555Z 00010KT 11/M05 A3006 RMK A01 T01141053  RH  031%=      5-min Rain = 0
KPG1 180556Z 01010KT 12/M05 A3005 RMK A01 T01151053  RH  031%=      5-min Rain = 0
KPG1 180557Z 01010KT 11/M05 A3005 RMK A01 T01141053  RH  031%=      5-min Rain = 0
KPG1 180558Z 00010KT 11/M05 A3005 RMK A01 T01141053  RH  031%=      5-min Rain = 0
KPG1 180559Z 00010KT 11/M05 A3005 RMK A01 T01141052  RH  031%=      5-min Rain = 0

Page generated in 0.1131 seconds.